S72073 / VQ-BVK 7700 Squawk Report (1st of April, 2020)

Aircraft B738 Reg No. VQ-BVK Age 5 years old
Model 737 Jet engines 2 First flight 05-11-14
Registered 12-19 Rollout N/A Delivered 13-11-14
Construction No. 41401 Line No. 5165 Series 8GJ
ADSHEX 4243CB Airline name S7 Airlines Owner Bank of China
Airfield based Moscow-Domodedovo~Moscow~RA First tracked N/A

Flight history for VQ-BVK

Route Flight No Date Playback
Pulkovo (LED) - Domododevo (DME) S71028 2020-05-27 11:36:00
Domododevo (DME) - Pulkovo (LED) S71027 2020-05-27 09:24:00
Ufa (UFA) - Domododevo (DME) S71136 2020-05-26 13:52:00
Domododevo (DME) - Ufa (UFA) S71135 2020-05-26 12:16:00
Abakan (ABA) - Domododevo (DME) S72594 2020-05-26 05:31:00
Domododevo (DME) - Abakan (ABA) S72593 2020-05-26 01:23:00
???? S71176 2020-05-24 17:09:00
???? S71175 2020-05-24 13:37:00
Tolmachevo (OVB) - Domododevo (DME) S72504 2020-05-19 05:27:00
Domododevo (DME) - Tolmachevo (OVB) S72513 2020-05-19 01:45:00
Pashkovskiy (KRR) - Domododevo (DME) S72074 2020-05-18 16:12:00
Domododevo (DME) - Pashkovskiy (KRR) S72073 2020-05-18 14:31:00
???? S72626 2020-05-18 03:54:00
Domododevo (DME) - Spichenkovo Airport (NOZ) S72625 2020-05-18 00:09:00
Beslan Airport (OGZ) - Domododevo (DME) S72154 2020-05-17 12:53:00
Domododevo (DME) - Beslan Airport (OGZ) S72153 2020-05-17 10:57:00
Kazan (KZN) - Domododevo (DME) S71056 2020-05-16 18:03:00
Domododevo (DME) - Kazan (KZN) S71055 2020-05-16 15:44:00
Beslan Airport (OGZ) - Domododevo (DME) S72154 2020-05-16 14:50:00
Domododevo (DME) - Beslan Airport (OGZ) S72153 2020-05-16 09:07:00
Time Lat Lon Altitude Heading Speed Vertical Rate
2020-04-01 12:44:14 GMT 45.086819 38.909691 5,900 203 267 -1472
2020-04-01 12:44:09 GMT 45.092056 38.912853 6,000 204 267 -1344
2020-04-01 12:43:58 GMT 45.105377 38.920834 6,275 203 268 -1408
2020-04-01 12:43:47 GMT 45.116611 38.927441 6,500 203 268 -1472
2020-04-01 12:43:37 GMT 45.128532 38.934544 6,750 203 269 -1344
2020-04-01 12:43:27 GMT 45.140404 38.941574 6,975 203 271 -1408
2020-04-01 12:43:16 GMT 45.152321 38.948608 7,225 203 271 -1408
2020-04-01 12:43:07 GMT 45.163971 38.955624 7,475 203 271 -1408
2020-04-01 12:42:56 GMT 45.175781 38.962677 7,700 203 272 -1408
2020-04-01 12:42:46 GMT 45.187653 38.969711 7,925 203 272 -1408
2020-04-01 12:42:39 GMT 45.195557 38.974392 8,100 203 273 -1472
2020-04-01 12:42:36 GMT 45.200180 38.977203 8,200 203 273 -1472
2020-04-01 12:42:30 GMT 45.206970 38.981167 8,350 203 273 -1472
2020-04-01 12:42:25 GMT 45.211720 38.983982 8,450 203 273 -1472
2020-04-01 12:42:19 GMT 45.218857 38.988255 8,575 204 273 -1472
2020-04-01 12:42:14 GMT 45.224121 38.991394 8,700 204 273 -1472
2020-04-01 12:42:08 GMT 45.231552 38.995907 8,850 203 274 -1472
2020-04-01 12:42:04 GMT 45.236618 38.998848 8,950 203 274 -1472
2020-04-01 12:41:58 GMT 45.242798 39.002579 9,075 203 274 -1408
2020-04-01 12:41:53 GMT 45.249008 39.006287 9,200 203 275 -1408
2020-04-01 12:41:49 GMT 45.255013 39.009838 9,325 203 275 -1472
2020-04-01 12:41:43 GMT 45.260422 39.013103 9,450 204 276 -1472
2020-04-01 12:41:38 GMT 45.267117 39.017139 9,575 203 276 -1408
2020-04-01 12:41:33 GMT 45.272552 39.020363 9,700 203 277 -1472
2020-04-01 12:41:27 GMT 45.279545 39.024509 9,850 203 277 -1472
2020-04-01 12:41:24 GMT 45.284271 39.027294 9,925 203 278 -1280
2020-04-01 12:41:18 GMT 45.291557 39.031609 10,025 203 281 -576
2020-04-01 12:41:13 GMT 45.297005 39.034824 10,050 203 286 -512
2020-04-01 12:41:07 GMT 45.304077 39.039047 10,100 203 290 -576
2020-04-01 12:41:03 GMT 45.309155 39.042061 10,150 203 294 -512
2020-04-01 12:40:56 GMT 45.317322 39.046913 10,200 203 298 -448
2020-04-01 12:40:53 GMT 45.322422 39.049965 10,225 203 301 -512
2020-04-01 12:40:46 GMT 45.330139 39.054630 10,300 203 306 -1088
2020-04-01 12:40:42 GMT 45.336014 39.058140 10,400 203 307 -1728
2020-04-01 12:40:36 GMT 45.343464 39.062561 10,575 203 307 -1856
2020-04-01 12:40:32 GMT 45.349327 39.066044 10,725 203 307 -1792
2020-04-01 12:40:26 GMT 45.356964 39.070530 10,900 203 307 -1856
2020-04-01 12:40:22 GMT 45.362961 39.074184 11,050 203 308 -1856
2020-04-01 12:40:15 GMT 45.370464 39.078636 11,225 203 309 -1856
2020-04-01 12:40:11 GMT 45.376934 39.082455 11,375 203 309 -1856
2020-04-01 12:40:06 GMT 45.384430 39.087002 11,550 203 310 -1856
2020-04-01 12:40:00 GMT 45.390526 39.090630 11,675 203 311 -1856
2020-04-01 12:39:55 GMT 45.397278 39.094582 11,850 203 311 -1856
2020-04-01 12:39:51 GMT 45.403652 39.098400 11,975 203 311 -1920
2020-04-01 12:39:45 GMT 45.411392 39.102959 12,175 203 311 -1920
2020-04-01 12:39:39 GMT 45.418533 39.107273 12,350 204 311 -1856
2020-04-01 12:39:34 GMT 45.425354 39.111393 12,500 203 312 -1856
2020-04-01 12:39:29 GMT 45.431446 39.115082 12,650 204 313 -1856
2020-04-01 12:39:24 GMT 45.438766 39.119503 12,800 203 313 -1856
2020-04-01 12:39:20 GMT 45.445179 39.123318 12,950 203 313 -1856
2020-04-01 12:39:14 GMT 45.452396 39.127674 13,125 204 314 -1856
2020-04-01 12:39:09 GMT 45.458542 39.131405 13,275 203 315 -1856
2020-04-01 12:39:04 GMT 45.466049 39.135918 13,450 203 315 -1920
2020-04-01 12:38:59 GMT 45.472641 39.139839 13,600 203 315 -1856
2020-04-01 12:38:54 GMT 45.480148 39.144352 13,775 203 315 -1856
2020-04-01 12:38:48 GMT 45.486465 39.148144 13,925 203 315 -1856
2020-04-01 12:38:43 GMT 45.494247 39.152855 14,100 204 315 -1856
2020-04-01 12:38:39 GMT 45.500290 39.156517 14,250 204 316 -1856
2020-04-01 12:38:33 GMT 45.507698 39.160969 14,425 204 316 -1856
2020-04-01 12:38:28 GMT 45.514030 39.164787 14,575 203 315 -1856
2020-04-01 12:38:22 GMT 45.521572 39.169342 14,725 203 316 -1856
2020-04-01 12:38:17 GMT 45.527901 39.173161 14,875 203 316 -1920
2020-04-01 12:38:08 GMT 45.541946 39.181561 15,200 203 316 -1856
2020-04-01 12:38:02 GMT 45.549225 39.185955 15,375 203 316 -1856
2020-04-01 12:37:57 GMT 45.555973 39.190018 15,525 203 316 -1856
2020-04-01 12:37:52 GMT 45.562866 39.194126 15,700 204 317 -1856
2020-04-01 12:37:46 GMT 45.570171 39.198532 15,875 204 317 -1920
2020-04-01 12:37:42 GMT 45.576923 39.202652 16,025 204 317 -1920
2020-04-01 12:37:36 GMT 45.583302 39.206429 16,175 203 318 -1856
2020-04-01 12:37:31 GMT 45.591167 39.211166 16,350 203 318 -1856
2020-04-01 12:37:26 GMT 45.597382 39.214962 16,500 203 318 -1856
2020-04-01 12:37:20 GMT 45.606201 39.220230 16,700 203 319 -1856
2020-04-01 12:37:16 GMT 45.611603 39.223526 16,825 203 319 -1856
2020-04-01 12:37:10 GMT 45.619377 39.228195 17,000 203 319 -1920
2020-04-01 12:37:05 GMT 45.625614 39.231903 17,150 203 319 -1920
2020-04-01 12:37:00 GMT 45.632832 39.236298 17,325 204 319 -1920
2020-04-01 12:36:56 GMT 45.639488 39.240280 17,475 204 319 -1856
2020-04-01 12:36:50 GMT 45.646683 39.244705 17,625 204 319 -1856
2020-04-01 12:36:45 GMT 45.653366 39.248726 17,775 204 319 -1856
2020-04-01 12:36:39 GMT 45.661240 39.253479 17,975 203 320 -1920
2020-04-01 12:36:34 GMT 45.667793 39.257446 18,125 204 320 -1920
2020-04-01 12:36:29 GMT 45.675842 39.262321 18,300 203 320 -1920
2020-04-01 12:36:24 GMT 45.681702 39.265942 18,450 203 321 -1856
2020-04-01 12:36:19 GMT 45.689072 39.270363 18,600 204 321 -1856
2020-04-01 12:36:14 GMT 45.695908 39.274544 18,775 204 321 -1856
2020-04-01 12:36:04 GMT 45.710854 39.283607 19,100 204 323 -1856
2020-04-01 12:35:58 GMT 45.717045 39.287384 19,250 204 323 -1856
2020-04-01 12:35:55 GMT 45.721279 39.289993 19,350 204 323 -1856
2020-04-01 12:35:52 GMT 45.725285 39.292397 19,425 204 323 -1856
2020-04-01 12:35:48 GMT 45.731197 39.296036 19,575 204 323 -1856
2020-04-01 12:35:43 GMT 45.739483 39.301048 19,750 204 324 -1856
2020-04-01 12:35:38 GMT 45.753448 39.309563 20,000 203 325 -1856
2020-04-01 12:35:32 GMT 45.753448 39.309563 20,075 203 325 -1920
2020-04-01 12:35:27 GMT 45.759964 39.313477 20,225 204 326 -1920
2020-04-01 12:35:22 GMT 45.767761 39.318192 20,400 204 327 -1920
2020-04-01 12:35:18 GMT 45.774719 39.322414 20,575 204 327 -1920
2020-04-01 12:35:11 GMT 45.782356 39.327072 20,900 203 328 -1920
2020-04-01 12:35:07 GMT 45.788361 39.330711 20,875 203 328 -1920
2020-04-01 12:35:04 GMT 45.792572 39.333263 20,975 204 329 -1920
2020-04-01 12:34:59 GMT 45.800262 39.337887 21,150 203 330 -1920
2020-04-01 12:34:54 GMT 45.806889 39.341904 21,300 204 330 -1920
2020-04-01 12:34:50 GMT 45.814896 39.346848 21,475 204 331 -1920
2020-04-01 12:34:47 GMT 45.817154 39.348206 21,525 204 331 -1920
2020-04-01 12:34:43 GMT 45.821648 39.350967 21,625 204 332 -1920
2020-04-01 12:34:39 GMT 45.827591 39.354568 21,725 203 333 -1920
2020-04-01 12:34:36 GMT 45.831436 39.356915 21,850 204 333 -1984
2020-04-01 12:34:33 GMT 45.835831 39.359592 21,950 204 334 -1984
2020-04-01 12:34:29 GMT 45.841965 39.363277 22,075 204 334 -1984
2020-04-01 12:34:26 GMT 45.846504 39.366074 22,200 203 335 -1984
2020-04-01 12:34:23 GMT 45.850204 39.368301 22,300 203 335 -1984
2020-04-01 12:34:19 GMT 45.856792 39.372322 22,450 203 337 -1984
2020-04-01 12:34:13 GMT 45.864708 39.377060 22,625 203 337 -1984
2020-04-01 12:34:09 GMT 45.869877 39.380219 22,725 204 339 -1984
2020-04-01 12:34:06 GMT 45.876205 39.384045 22,875 203 340 -1984
2020-04-01 12:34:00 GMT 45.884262 39.388599 23,075 200 343 -1984
2020-04-01 12:33:55 GMT 45.890991 39.392014 23,225 200 343 -1984
2020-04-01 12:33:52 GMT 45.895199 39.394157 23,300 200 345 -1984
2020-04-01 12:33:49 GMT 45.899734 39.396370 23,400 200 345 -1984
2020-04-01 12:33:45 GMT 45.906509 39.399719 23,550 200 346 -1984
2020-04-01 12:33:42 GMT 45.910145 39.401505 23,650 200 346 -1984
2020-04-01 12:33:38 GMT 45.917725 39.405277 23,800 200 349 -2048
2020-04-01 12:33:34 GMT 45.922012 39.407410 23,900 200 350 -2048
2020-04-01 12:33:31 GMT 45.926716 39.409744 24,000 200 350 -2048
2020-04-01 12:33:26 GMT 45.935486 39.414055 24,200 199 353 -1920
2020-04-01 12:33:22 GMT 45.941658 39.417091 24,325 200 354 -1920
2020-04-01 12:33:17 GMT 45.950638 39.421558 24,500 199 356 -2112
2020-04-01 12:33:12 GMT 45.956837 39.424644 24,675 199 356 -2560
2020-04-01 12:33:07 GMT 45.965912 39.429108 24,900 200 356 -2560
2020-04-01 12:33:01 GMT 45.973221 39.432747 25,100 200 357 -2624
2020-04-01 12:32:57 GMT 45.979477 39.435894 25,400 200 358 -2688
2020-04-01 12:32:54 GMT 45.985840 39.439041 25,475 200 358 -2688
2020-04-01 12:32:51 GMT 45.988815 39.440582 25,550 200 358 -2688
2020-04-01 12:32:46 GMT 45.997559 39.444939 25,825 200 358 -2816
2020-04-01 12:32:41 GMT 46.004738 39.448540 26,025 200 358 -2688
2020-04-01 12:32:37 GMT 46.011162 39.451698 26,200 200 358 -2624
2020-04-01 12:32:33 GMT 46.017746 39.454987 26,400 200 358 -2624
2020-04-01 12:32:30 GMT 46.021637 39.456997 26,500 200 358 -2624
2020-04-01 12:32:26 GMT 46.027771 39.460011 26,675 200 358 -2688
2020-04-01 12:32:23 GMT 46.034019 39.463165 26,850 200 358 -2752
2020-04-01 12:32:20 GMT 46.037155 39.464699 26,950 200 358 -2752
2020-04-01 12:32:16 GMT 46.046585 39.469391 27,200 199 359 -2752
2020-04-01 12:32:10 GMT 46.053478 39.472778 27,425 199 359 -2752
2020-04-01 12:32:04 GMT 46.063385 39.477695 27,600 199 359 -2624
2020-04-01 12:32:00 GMT 46.069199 39.480576 27,850 200 360 -2496
2020-04-01 12:31:55 GMT 46.078011 39.485001 28,100 199 360 -2752
2020-04-01 12:31:50 GMT 46.085087 39.488503 28,300 199 359 -2816
2020-04-01 12:31:42 GMT 46.098953 39.495380 28,700 200 361 -2624
2020-04-01 12:31:34 GMT 46.112041 39.501961 29,050 200 362 -2624
2020-04-01 12:31:31 GMT 46.115345 39.503609 29,150 200 362 -2560
2020-04-01 12:31:24 GMT 46.125774 39.508827 29,475 200 364 -2496
2020-04-01 12:31:21 GMT 46.131500 39.511658 29,575 200 364 -2432
2020-04-01 12:31:14 GMT 46.141228 39.516518 29,825 200 364 -2432
2020-04-01 12:31:11 GMT 46.147888 39.519833 29,975 199 365 -2368
2020-04-01 12:31:03 GMT 46.159615 39.525650 30,225 199 366 -2432
2020-04-01 12:31:00 GMT 46.164413 39.528004 30,400 200 368 -2368
2020-04-01 12:30:53 GMT 46.176514 39.534027 30,700 199 370 -2368
2020-04-01 12:30:50 GMT 46.180389 39.535912 30,800 200 370 -2368
2020-04-01 12:30:43 GMT 46.193504 39.542473 31,100 200 372 -2368
2020-04-01 12:30:39 GMT 46.197556 39.544464 31,200 200 372 -2368
2020-04-01 12:30:33 GMT 46.208771 39.550110 31,475 200 374 -2304
2020-04-01 12:30:30 GMT 46.214493 39.552994 31,625 200 374 -2240
2020-04-01 12:30:23 GMT 46.226578 39.559155 31,875 200 377 -2048
2020-04-01 12:30:18 GMT 46.231659 39.561836 31,975 200 378 -1984
2020-04-01 12:30:12 GMT 46.243408 39.567810 32,225 200 381 -1920
2020-04-01 12:30:09 GMT 46.248253 39.570213 32,300 200 383 -1920
2020-04-01 12:30:03 GMT 46.258633 39.575500 32,500 200 385 -2048
2020-04-01 12:29:59 GMT 46.265522 39.578934 32,650 200 386 -2112
2020-04-01 12:29:51 GMT 46.277206 39.584881 32,850 200 390 -1536
2020-04-01 12:29:48 GMT 46.282654 39.587585 32,950 200 393 -1664
2020-04-01 12:29:42 GMT 46.295689 39.594109 33,175 200 395 -1536
2020-04-01 12:29:38 GMT 46.300388 39.596443 33,225 200 399 -1088
2020-04-01 12:29:30 GMT 46.314358 39.603447 33,425 200 403 -1792
2020-04-01 12:29:27 GMT 46.318909 39.605782 33,500 200 404 -1792
2020-04-01 12:29:20 GMT 46.330948 39.611809 33,675 200 408 -1472
2020-04-01 12:29:16 GMT 46.338425 39.615532 33,775 200 410 -1600
2020-04-01 12:29:10 GMT 46.348804 39.620750 33,925 200 414 -1280
2020-04-01 12:29:06 GMT 46.355881 39.624252 34,025 200 416 -1152
2020-04-01 12:29:00 GMT 46.368439 39.630566 34,175 200 420 -1856
2020-04-01 12:28:56 GMT 46.374687 39.633659 34,300 200 420 -2496
2020-04-01 12:28:49 GMT 46.387165 39.639977 34,600 200 421 -2304
2020-04-01 12:28:46 GMT 46.394165 39.643494 34,725 200 423 -1792
2020-04-01 12:28:40 GMT 46.405609 39.649258 34,950 200 424 -2560
2020-04-01 12:28:36 GMT 46.412430 39.652805 35,125 200 424 -2944
2020-04-01 12:28:30 GMT 46.426483 39.659908 35,500 200 423 -3136
2020-04-01 12:28:25 GMT 46.431839 39.662586 35,650 200 422 -3136
2020-04-01 12:28:19 GMT 46.444004 39.668747 36,000 200 421 -2944
2020-04-01 12:28:15 GMT 46.449875 39.671700 36,150 200 421 -2624
2020-04-01 12:28:09 GMT 46.463150 39.678463 36,450 200 422 -2560
2020-04-01 12:28:05 GMT 46.469048 39.681450 36,575 200 422 -2560
2020-04-01 12:27:59 GMT 46.481369 39.687641 36,875 200 422 -2496
2020-04-01 12:27:55 GMT 46.487621 39.690857 37,000 200 422 -2432
2020-04-01 12:27:49 GMT 46.500732 39.697422 37,275 200 423 -2176
2020-04-01 12:27:45 GMT 46.506290 39.700264 37,400 200 423 -1920
2020-04-01 12:27:38 GMT 46.519043 39.706669 37,600 200 423 -1344
2020-04-01 12:27:35 GMT 46.525703 39.710014 37,675 200 423 -1088
2020-04-01 12:27:28 GMT 46.537899 39.716125 37,775 200 423 -1024
2020-04-01 12:27:24 GMT 46.544697 39.719627 37,825 200 424 -1024
2020-04-01 12:27:17 GMT 46.558594 39.726696 37,950 200 426 -960
2020-04-01 12:27:13 GMT 46.564362 39.729645 38,025 200 426 -960
2020-04-01 12:27:07 GMT 46.577728 39.736477 38,150 200 426 -1024
2020-04-01 12:27:03 GMT 46.583660 39.739471 38,200 200 426 -1024
2020-04-01 12:26:57 GMT 46.595207 39.745377 38,300 200 428 -1024
2020-04-01 12:26:54 GMT 46.602631 39.749207 38,350 200 429 -1024
2020-04-01 12:26:46 GMT 46.614990 39.755501 38,475 200 431 -1024
2020-04-01 12:26:43 GMT 46.621582 39.758850 38,525 200 432 -1024
2020-04-01 12:26:37 GMT 46.634354 39.765415 38,650 200 433 -1088
2020-04-01 12:26:33 GMT 46.640625 39.768566 38,700 200 433 -1088
2020-04-01 12:26:26 GMT 46.653442 39.775131 38,825 200 434 -1088
2020-04-01 12:26:23 GMT 46.660660 39.778816 38,900 200 434 -1088
2020-04-01 12:26:16 GMT 46.672943 39.785110 38,975 200 434 -512
2020-04-01 12:26:12 GMT 46.680164 39.788773 39,000 200 435 -64
2020-04-01 12:26:05 GMT 46.692314 39.794952 39,000 200 435 0
2020-04-01 12:26:02 GMT 46.699127 39.798443 39,000 200 435 0
2020-04-01 12:25:54 GMT 46.714371 39.806213 39,000 200 436 0
2020-04-01 12:25:51 GMT 46.719315 39.808685 39,000 200 436 0
2020-04-01 12:25:45 GMT 46.731834 39.815071 39,000 200 436 0
2020-04-01 12:25:42 GMT 46.738495 39.818474 39,000 200 436 0
2020-04-01 12:25:34 GMT 46.751808 39.825302 39,000 200 436 0
2020-04-01 12:25:31 GMT 46.757904 39.828388 39,000 200 436 0
2020-04-01 12:25:24 GMT 46.771957 39.835621 39,000 200 436 0
2020-04-01 12:25:21 GMT 46.777496 39.838436 39,000 200 436 0
2020-04-01 12:25:13 GMT 46.792122 39.845970 39,000 200 437 0
2020-04-01 12:25:10 GMT 46.796917 39.848442 39,000 200 437 0
2020-04-01 12:25:03 GMT 46.811920 39.856190 39,000 200 437 0
2020-04-01 12:25:00 GMT 46.816681 39.858601 39,000 200 438 0
2020-04-01 12:24:53 GMT 46.831551 39.866226 39,000 200 438 0
2020-04-01 12:24:50 GMT 46.836720 39.868904 39,000 200 438 0
2020-04-01 12:24:43 GMT 46.849659 39.875565 39,000 200 438 0
2020-04-01 12:24:39 GMT 46.856365 39.878998 39,000 200 438 0
2020-04-01 12:24:30 GMT 46.876144 39.889229 39,000 200 438 0
2020-04-01 12:24:21 GMT 46.890858 39.896778 39,000 200 438 0
2020-04-01 12:24:18 GMT 46.895782 39.899323 39,000 200 438 0
2020-04-01 12:24:11 GMT 46.910294 39.906807 39,000 200 438 0
2020-04-01 12:24:08 GMT 46.915997 39.909737 39,000 200 438 0
2020-04-01 12:23:59 GMT 46.934151 39.919037 39,000 200 438 0
2020-04-01 12:23:52 GMT 46.947281 39.925827 39,000 200 438 0
2020-04-01 12:23:48 GMT 46.953751 39.929245 39,000 200 437 0
2020-04-01 12:23:41 GMT 46.969208 39.937225 39,000 200 437 0
2020-04-01 12:23:38 GMT 46.973557 39.939491 39,000 200 438 0
2020-04-01 12:23:30 GMT 46.988247 39.947063 39,000 200 438 0
2020-04-01 12:23:27 GMT 46.993195 39.949654 39,000 200 438 -64
2020-04-01 12:23:20 GMT 47.007893 39.957207 39,000 200 437 0
2020-04-01 12:23:17 GMT 47.013611 39.960159 39,000 200 437 0
2020-04-01 12:23:10 GMT 47.025627 39.966290 39,000 200 437 0
2020-04-01 12:23:07 GMT 47.032471 39.969841 39,000 200 437 0
2020-04-01 12:22:59 GMT 47.047348 39.977531 39,000 200 438 0
2020-04-01 12:22:56 GMT 47.052303 39.980091 39,000 200 438 0
2020-04-01 12:22:50 GMT 47.073074 39.990784 39,000 200 437 0
2020-04-01 12:22:47 GMT 47.073074 39.990784 39,000 200 437 0
2020-04-01 12:22:39 GMT 47.084656 39.996826 39,000 200 437 0
2020-04-01 12:22:36 GMT 47.091125 40.000164 39,000 200 437 0
2020-04-01 12:22:29 GMT 47.103325 40.006504 39,000 200 436 0
2020-04-01 12:22:26 GMT 47.110153 40.010010 39,000 200 436 0
2020-04-01 12:22:18 GMT 47.126133 40.018265 39,000 200 436 0
2020-04-01 12:22:15 GMT 47.130890 40.020721 39,000 200 436 0
2020-04-01 12:22:08 GMT 47.145733 40.028404 39,000 200 436 0
2020-04-01 12:22:05 GMT 47.149502 40.030376 39,000 200 435 0
2020-04-01 12:21:58 GMT 47.164913 40.038334 39,000 200 435 0
2020-04-01 12:21:55 GMT 47.169662 40.040771 39,000 200 435 0
2020-04-01 12:21:45 GMT 47.188606 40.050591 39,000 200 435 0
2020-04-01 12:21:35 GMT 47.208904 40.061153 39,000 200 435 0
2020-04-01 12:21:24 GMT 47.228409 40.071365 39,000 200 436 0
2020-04-01 12:21:17 GMT 47.242264 40.078606 39,000 200 437 0
2020-04-01 12:21:14 GMT 47.246052 40.080662 39,000 200 437 0
2020-04-01 12:21:11 GMT 47.252563 40.084030 39,000 200 437 0
2020-04-01 12:21:07 GMT 47.259201 40.087532 39,000 200 437 0
2020-04-01 12:21:01 GMT 47.272156 40.094330 39,000 200 437 0
2020-04-01 12:20:58 GMT 47.279755 40.098335 39,000 200 437 0
2020-04-01 12:20:53 GMT 47.286785 40.102070 39,000 200 437 0
2020-04-01 12:20:49 GMT 47.293816 40.105732 39,000 200 437 0
2020-04-01 12:20:43 GMT 47.306385 40.112350 39,000 200 436 0
2020-04-01 12:20:40 GMT 47.312992 40.115803 39,000 200 437 0
2020-04-01 12:20:32 GMT 47.326492 40.122826 39,000 200 436 0
2020-04-01 12:20:29 GMT 47.332592 40.126015 39,000 200 436 0
2020-04-01 12:20:23 GMT 47.345490 40.132774 39,000 200 436 0
2020-04-01 12:20:19 GMT 47.351772 40.136013 39,000 200 435 0
2020-04-01 12:20:12 GMT 47.364441 40.142670 39,000 200 435 0
2020-04-01 12:20:09 GMT 47.372814 40.146999 39,000 200 435 0
2020-04-01 12:20:02 GMT 47.383755 40.152775 39,000 200 434 0
2020-04-01 12:19:58 GMT 47.392822 40.157570 39,000 200 434 64
2020-04-01 12:19:49 GMT 47.407215 40.165100 39,000 200 434 -64
2020-04-01 12:19:46 GMT 47.413055 40.168213 39,000 200 431 0
2020-04-01 12:19:41 GMT 47.423630 40.173775 39,000 200 433 0
2020-04-01 12:19:37 GMT 47.431934 40.178127 39,000 200 433 64
2020-04-01 12:19:29 GMT 47.446198 40.185654 39,000 200 432 0
2020-04-01 12:19:25 GMT 47.453720 40.189610 39,000 200 431 0
2020-04-01 12:19:19 GMT 47.464828 40.195404 39,000 200 432 0
2020-04-01 12:19:16 GMT 47.472343 40.199398 39,000 200 432 0
2020-04-01 12:19:11 GMT 47.481354 40.204124 39,000 200 431 0
2020-04-01 12:19:08 GMT 47.484192 40.205566 39,000 200 431 -64
2020-04-01 12:19:05 GMT 47.503510 40.215797 39,000 200 431 0
2020-04-01 12:18:58 GMT 47.503510 40.215797 39,000 200 431 0
2020-04-01 12:18:54 GMT 47.510609 40.219540 39,000 200 431 0
2020-04-01 12:18:48 GMT 47.523148 40.226166 39,000 200 431 0
2020-04-01 12:18:44 GMT 47.530472 40.230011 39,000 200 430 0
2020-04-01 12:18:38 GMT 47.541332 40.235737 39,000 200 430 0
2020-04-01 12:18:34 GMT 47.549744 40.240242 39,000 200 430 0
2020-04-01 12:18:27 GMT 47.561489 40.246513 39,000 200 430 0
2020-04-01 12:18:24 GMT 47.568237 40.250061 39,000 200 430 0
2020-04-01 12:18:18 GMT 47.579453 40.256035 39,000 200 429 0
2020-04-01 12:18:14 GMT 47.588242 40.260635 39,000 200 429 0
2020-04-01 12:18:07 GMT 47.599045 40.266403 39,000 200 429 0
2020-04-01 12:18:03 GMT 47.607250 40.270737 39,000 200 429 64
2020-04-01 12:17:57 GMT 47.618469 40.276726 39,000 200 429 0
2020-04-01 12:17:53 GMT 47.626282 40.280823 39,000 200 428 0
2020-04-01 12:17:47 GMT 47.637131 40.286591 39,000 200 428 0
2020-04-01 12:17:43 GMT 47.645702 40.291092 39,000 200 428 0
2020-04-01 12:17:37 GMT 47.655804 40.296371 39,000 200 428 0
2020-04-01 12:17:32 GMT 47.664928 40.301163 39,000 200 428 0
2020-04-01 12:17:26 GMT 47.675404 40.306656 39,000 200 428 0
2020-04-01 12:17:22 GMT 47.683784 40.311092 39,000 200 428 0
2020-04-01 12:17:16 GMT 47.693836 40.316372 39,000 200 427 0
2020-04-01 12:17:12 GMT 47.703335 40.321304 39,000 200 426 0
2020-04-01 12:17:06 GMT 47.713345 40.326584 39,000 200 426 -64
2020-04-01 12:17:01 GMT 47.722824 40.331566 39,000 200 426 0
2020-04-01 12:16:56 GMT 47.732105 40.336372 39,000 200 425 0
2020-04-01 12:16:50 GMT 47.741913 40.341522 39,000 200 424 0
2020-04-01 12:16:46 GMT 47.750610 40.346123 39,000 200 424 0
2020-04-01 12:16:40 GMT 47.760910 40.351685 39,000 200 423 64
2020-04-01 12:16:35 GMT 47.769608 40.356148 39,000 198 424 0
2020-04-01 12:16:29 GMT 47.781235 40.361366 39,000 196 424 0
2020-04-01 12:16:25 GMT 47.789223 40.364475 39,000 194 424 0
2020-04-01 12:16:19 GMT 47.800323 40.368370 39,000 192 426 0
2020-04-01 12:16:15 GMT 47.808636 40.370743 39,000 190 427 0
2020-04-01 12:16:10 GMT 47.820511 40.373589 39,000 188 428 -64
2020-04-01 12:16:05 GMT 47.828747 40.375107 39,000 186 428 -64
2020-04-01 12:15:59 GMT 47.840199 40.376656 39,000 184 429 0
2020-04-01 12:15:55 GMT 47.849136 40.377293 39,000 182 431 0
2020-04-01 12:15:48 GMT 47.861099 40.377785 39,000 182 431 0
2020-04-01 12:15:44 GMT 47.869858 40.378120 39,000 182 431 0
2020-04-01 12:15:39 GMT 47.881439 40.378532 39,000 182 431 0
2020-04-01 12:15:33 GMT 47.890778 40.378876 39,000 182 431 0
2020-04-01 12:15:28 GMT 47.902359 40.379288 39,000 182 431 0
2020-04-01 12:15:23 GMT 47.911518 40.379616 39,000 182 431 0
2020-04-01 12:15:18 GMT 47.922043 40.380043 39,000 182 431 0
2020-04-01 12:15:13 GMT 47.931427 40.380386 39,000 182 432 64
2020-04-01 12:15:07 GMT 47.942596 40.380798 39,000 182 432 0
2020-04-01 12:15:02 GMT 47.953365 40.381165 39,000 182 432 0
2020-04-01 12:14:58 GMT 47.963928 40.381485 39,000 182 432 0
2020-04-01 12:14:52 GMT 47.972687 40.381798 39,000 182 432 0
2020-04-01 12:14:47 GMT 47.984280 40.382221 39,000 182 432 0
2020-04-01 12:14:43 GMT 47.991852 40.382515 39,000 182 433 0
2020-04-01 12:14:36 GMT 48.005035 40.382927 39,000 182 432 0
2020-04-01 12:14:32 GMT 48.014236 40.383202 39,000 182 432 0
2020-04-01 12:14:27 GMT 48.024811 40.383545 39,000 182 433 0
2020-04-01 12:14:21 GMT 48.035202 40.383888 39,000 182 433 0
2020-04-01 12:14:16 GMT 48.045170 40.384262 39,000 182 433 0
2020-04-01 12:14:12 GMT 48.055550 40.384617 39,000 182 432 0
2020-04-01 12:14:05 GMT 48.066536 40.385036 39,000 182 432 0
2020-04-01 12:14:01 GMT 48.075943 40.385399 39,000 182 432 -64
2020-04-01 12:13:55 GMT 48.087112 40.385742 39,000 182 432 -64
2020-04-01 12:13:50 GMT 48.096283 40.386093 39,000 182 432 0
2020-04-01 12:13:46 GMT 48.106888 40.386497 39,000 182 432 64
2020-04-01 12:13:41 GMT 48.116638 40.386841 39,000 182 431 0
2020-04-01 12:13:35 GMT 48.127213 40.387184 39,000 182 431 0
2020-04-01 12:13:29 GMT 48.138134 40.387505 39,000 182 430 0
2020-04-01 12:13:24 GMT 48.148270 40.387871 39,000 182 430 0
2020-04-01 12:13:19 GMT 48.158195 40.388138 39,000 182 429 -64
2020-04-01 12:13:15 GMT 48.168320 40.388489 39,000 182 429 0
2020-04-01 12:13:10 GMT 48.178391 40.388771 39,000 182 428 0
2020-04-01 12:13:04 GMT 48.189468 40.389122 39,000 182 428 0
2020-04-01 12:12:59 GMT 48.198978 40.389427 39,000 182 428 0
2020-04-01 12:12:53 GMT 48.209839 40.389828 39,000 182 428 64
2020-04-01 12:12:48 GMT 48.219543 40.390110 39,000 182 428 0
2020-04-01 12:12:44 GMT 48.229797 40.390461 39,000 182 428 0
2020-04-01 12:12:39 GMT 48.239502 40.390812 39,000 182 429 64
2020-04-01 12:12:33 GMT 48.250580 40.391167 39,000 182 429 0
2020-04-01 12:12:28 GMT 48.259918 40.391518 39,000 182 429 0
2020-04-01 12:12:22 GMT 48.270805 40.391888 39,000 182 429 0
2020-04-01 12:12:17 GMT 48.281094 40.392246 39,000 182 429 -64
2020-04-01 12:12:13 GMT 48.291000 40.392574 39,000 182 429 -64
2020-04-01 12:12:08 GMT 48.300888 40.392925 39,000 182 429 0
2020-04-01 12:12:02 GMT 48.311417 40.393276 39,000 182 429 0
2020-04-01 12:11:58 GMT 48.319363 40.393547 39,000 182 430 0
2020-04-01 12:11:55 GMT 48.325287 40.393772 39,000 182 430 64
2020-04-01 12:11:52 GMT 48.331467 40.393982 39,000 182 430 64
2020-04-01 12:11:49 GMT 48.339378 40.394272 39,000 182 430 0
2020-04-01 12:11:46 GMT 48.346115 40.394547 39,000 182 430 0
2020-04-01 12:11:42 GMT 48.351883 40.394756 39,000 182 430 0
2020-04-01 12:11:39 GMT 48.359444 40.394993 39,000 182 430 -64
2020-04-01 12:11:35 GMT 48.366425 40.395283 39,000 182 430 -64
2020-04-01 12:11:32 GMT 48.372757 40.395531 39,000 182 431 64
2020-04-01 12:11:27 GMT 48.380127 40.395744 39,000 182 431 0
2020-04-01 12:11:24 GMT 48.386070 40.396008 39,000 182 431 0
2020-04-01 12:11:21 GMT 48.393051 40.396221 39,000 182 431 0
2020-04-01 12:11:18 GMT 48.399033 40.396446 39,000 182 432 -64
2020-04-01 12:11:15 GMT 48.405624 40.396660 39,000 182 432 0
2020-04-01 12:11:10 GMT 48.414185 40.397011 39,000 182 433 0
2020-04-01 12:11:07 GMT 48.421783 40.397293 39,000 182 433 0
2020-04-01 12:11:04 GMT 48.427963 40.397503 39,000 182 433 0
2020-04-01 12:11:00 GMT 48.435974 40.397812 39,000 182 434 -64
2020-04-01 12:10:55 GMT 48.447845 40.398247 39,000 182 435 0
2020-04-01 12:10:50 GMT 48.455479 40.398537 39,000 182 436 64
2020-04-01 12:10:47 GMT 48.461720 40.398750 39,000 182 436 0
2020-04-01 12:10:44 GMT 48.467560 40.398983 39,000 182 437 0
2020-04-01 12:10:37 GMT 48.481689 40.399475 39,000 182 438 0
2020-04-01 12:10:33 GMT 48.489166 40.399685 39,000 182 439 64
2020-04-01 12:10:30 GMT 48.496674 40.399899 39,000 182 439 0
2020-04-01 12:10:27 GMT 48.507805 40.400269 39,000 182 443 -64
2020-04-01 12:10:24 GMT 48.507805 40.400269 39,000 182 440 0
2020-04-01 12:10:21 GMT 48.513298 40.400414 39,000 182 440 0
2020-04-01 12:10:17 GMT 48.524918 40.400814 39,000 182 441 0
2020-04-01 12:10:14 GMT 48.528992 40.400955 39,000 182 441 0
2020-04-01 12:10:11 GMT 48.534073 40.401165 39,000 182 442 0
2020-04-01 12:10:06 GMT 48.544876 40.401516 39,000 182 442 -64
2020-04-01 12:10:03 GMT 48.553436 40.401798 39,000 182 442 0
2020-04-01 12:09:59 GMT 48.559944 40.402004 39,000 182 442 -64
2020-04-01 12:09:53 GMT 48.571163 40.402439 39,000 182 442 -64
2020-04-01 12:09:48 GMT 48.581589 40.402786 39,000 182 442 0
2020-04-01 12:09:44 GMT 48.589966 40.403137 39,000 182 443 64
2020-04-01 12:09:41 GMT 48.594669 40.403305 39,000 182 443 64
2020-04-01 12:09:38 GMT 48.601593 40.403488 39,000 182 443 -64
2020-04-01 12:09:32 GMT 48.613861 40.403912 39,000 182 444 0
2020-04-01 12:09:28 GMT 48.623108 40.404263 39,000 182 444 -64
2020-04-01 12:09:22 GMT 48.636009 40.404678 39,025 182 444 -64
2020-04-01 12:09:19 GMT 48.638855 40.404827 39,025 182 444 0
2020-04-01 12:09:14 GMT 48.650349 40.405258 39,000 182 444 128
2020-04-01 12:09:10 GMT 48.658119 40.405544 39,000 182 444 0
2020-04-01 12:09:07 GMT 48.665085 40.405811 39,000 182 444 0
2020-04-01 12:09:02 GMT 48.674744 40.406235 39,000 182 444 64
2020-04-01 12:08:59 GMT 48.680050 40.406414 39,000 182 444 64
2020-04-01 12:08:54 GMT 48.691730 40.406921 39,000 182 443 64
2020-04-01 12:08:50 GMT 48.699097 40.407150 39,000 182 443 0
2020-04-01 12:08:47 GMT 48.707279 40.407497 39,000 182 443 0
2020-04-01 12:08:44 GMT 48.711189 40.407642 39,000 182 442 0
2020-04-01 12:08:39 GMT 48.722225 40.408077 39,000 182 442 0
2020-04-01 12:08:34 GMT 48.736313 40.408630 39,000 182 442 64
2020-04-01 12:08:30 GMT 48.742428 40.408798 39,000 182 441 0
2020-04-01 12:08:26 GMT 48.749359 40.409054 39,000 182 441 0
2020-04-01 12:08:21 GMT 48.760956 40.409451 39,000 182 441 -64
2020-04-01 12:08:18 GMT 48.764008 40.409473 39,000 182 440 -64
2020-04-01 12:08:14 GMT 48.780441 40.409969 39,000 182 440 0
2020-04-01 12:08:11 GMT 48.780441 40.409969 39,000 182 439 64
2020-04-01 12:08:08 GMT 48.784103 40.410110 39,000 182 439 0
2020-04-01 12:08:04 GMT 48.794052 40.410389 39,000 181 439 0
2020-04-01 12:07:57 GMT 48.806622 40.410679 39,000 181 439 0
2020-04-01 12:07:53 GMT 48.815094 40.410885 39,000 181 439 64
2020-04-01 12:07:48 GMT 48.826035 40.411095 39,000 181 439 0
2020-04-01 12:07:44 GMT 48.835968 40.411377 39,000 181 439 0
2020-04-01 12:07:41 GMT 48.842651 40.411518 39,000 181 439 64
2020-04-01 12:07:37 GMT 48.846706 40.411617 39,000 181 439 0
2020-04-01 12:07:34 GMT 48.854198 40.411762 39,000 181 439 0
2020-04-01 12:07:31 GMT 48.860905 40.411907 39,000 181 439 0
2020-04-01 12:07:27 GMT 48.867188 40.412052 39,000 181 439 0
2020-04-01 12:07:23 GMT 48.877895 40.412342 39,000 182 439 0
2020-04-01 12:07:17 GMT 48.888245 40.412643 39,000 182 438 -64
2020-04-01 12:07:14 GMT 48.896530 40.412926 39,000 184 437 0
2020-04-01 12:07:10 GMT 48.903625 40.413208 39,000 182 438 0
2020-04-01 12:07:07 GMT 48.908478 40.413425 39,000 183 438 0
2020-04-01 12:07:03 GMT 48.917557 40.413933 39,000 183 437 64
2020-04-01 12:06:59 GMT 48.925827 40.414547 39,000 184 437 64
2020-04-01 12:06:56 GMT 48.929901 40.414898 39,000 184 437 0
2020-04-01 12:06:53 GMT 48.937775 40.415531 39,000 184 437 0
2020-04-01 12:06:50 GMT 48.946655 40.416237 39,000 184 438 -64
2020-04-01 12:06:47 GMT 48.950272 40.416519 39,000 183 438 -64
2020-04-01 12:06:41 GMT 48.960800 40.417294 39,000 183 438 0
2020-04-01 12:06:36 GMT 48.972301 40.418194 39,000 183 438 0
2020-04-01 12:06:31 GMT 48.981800 40.418919 39,000 184 438 64
2020-04-01 12:06:26 GMT 48.992321 40.419712 39,000 184 438 0
2020-04-01 12:06:20 GMT 49.002655 40.420582 39,000 184 438 0
2020-04-01 12:06:16 GMT 49.013763 40.421448 39,000 184 438 0
2020-04-01 12:06:12 GMT 49.022461 40.422081 39,000 184 438 0
2020-04-01 12:06:08 GMT 49.030167 40.422676 39,000 184 438 0
2020-04-01 12:06:05 GMT 49.034405 40.423038 39,000 184 438 0
2020-04-01 12:06:01 GMT 49.043110 40.423759 39,000 184 438 0
2020-04-01 12:05:58 GMT 49.049194 40.424267 39,000 184 438 0
2020-04-01 12:05:54 GMT 49.055679 40.424774 39,000 184 438 0
2020-04-01 12:05:51 GMT 49.063545 40.425423 39,000 184 438 0
2020-04-01 12:05:48 GMT 49.069408 40.425930 39,000 184 438 0
2020-04-01 12:05:45 GMT 49.075882 40.426517 39,000 184 438 0
2020-04-01 12:05:41 GMT 49.083981 40.427158 39,000 184 439 0
2020-04-01 12:05:37 GMT 49.090687 40.427734 39,000 184 439 0
2020-04-01 12:05:34 GMT 49.097168 40.428349 39,000 184 439 -64
2020-04-01 12:05:31 GMT 49.104836 40.428967 39,000 184 439 0
2020-04-01 12:05:28 GMT 49.112331 40.429688 39,000 184 439 0
2020-04-01 12:05:24 GMT 49.118614 40.430195 39,000 184 439 64
2020-04-01 12:05:20 GMT 49.126328 40.430885 39,000 184 439 64
2020-04-01 12:05:17 GMT 49.132187 40.431377 39,000 184 439 0
2020-04-01 12:05:12 GMT 49.140308 40.432072 39,000 184 439 -64
2020-04-01 12:05:07 GMT 49.152458 40.433086 39,000 184 439 -64
2020-04-01 12:05:03 GMT 49.161583 40.433880 39,000 184 439 0
2020-04-01 12:04:59 GMT 49.168030 40.434406 39,000 184 439 0
2020-04-01 12:04:56 GMT 49.173313 40.434818 39,000 184 439 0
2020-04-01 12:04:53 GMT 49.180389 40.435471 39,000 184 439 0
2020-04-01 12:04:49 GMT 49.188305 40.436119 39,000 184 439 0
2020-04-01 12:04:44 GMT 49.197010 40.436844 39,000 184 439 0
2020-04-01 12:04:41 GMT 49.203918 40.437435 39,000 184 439 -64
2020-04-01 12:04:38 GMT 49.209366 40.437927 39,000 184 439 -64
2020-04-01 12:04:35 GMT 49.216873 40.438560 39,000 184 439 0
2020-04-01 12:04:32 GMT 49.224380 40.439194 39,000 184 439 0
2020-04-01 12:04:28 GMT 49.230854 40.439735 39,000 184 439 64
2020-04-01 12:04:24 GMT 49.239395 40.440464 39,000 184 439 64
2020-04-01 12:04:21 GMT 49.245255 40.440956 39,000 184 440 64
2020-04-01 12:04:17 GMT 49.251572 40.441521 39,000 184 440 0
2020-04-01 12:04:14 GMT 49.259079 40.442154 39,000 184 440 64
2020-04-01 12:04:10 GMT 49.265953 40.442699 39,000 184 440 64
2020-04-01 12:04:07 GMT 49.272285 40.443275 39,000 184 440 0
2020-04-01 12:04:04 GMT 49.279175 40.443844 39,000 184 441 0
2020-04-01 12:04:01 GMT 49.286728 40.444477 39,000 184 441 0
2020-04-01 12:03:58 GMT 49.292816 40.445011 39,000 184 441 0
2020-04-01 12:03:53 GMT 49.301971 40.445744 39,000 184 441 -64
2020-04-01 12:03:50 GMT 49.308502 40.446312 39,000 184 441 -64
2020-04-01 12:03:47 GMT 49.314194 40.446800 39,000 184 441 -64
2020-04-01 12:03:43 GMT 49.322525 40.447433 39,000 184 441 -64
2020-04-01 12:03:37 GMT 49.334946 40.448479 39,000 184 441 0
2020-04-01 12:03:30 GMT 49.350025 40.449711 39,000 183 441 0
2020-04-01 12:03:26 GMT 49.357151 40.450287 39,000 183 442 0
2020-04-01 12:03:22 GMT 49.364914 40.450886 39,000 183 442 0
2020-04-01 12:03:19 GMT 49.371021 40.451370 39,000 183 442 0
2020-04-01 12:03:16 GMT 49.376514 40.451805 39,000 183 442 0
2020-04-01 12:03:12 GMT 49.385735 40.452526 39,000 183 442 0
2020-04-01 12:03:09 GMT 49.391644 40.452961 39,000 183 443 0
2020-04-01 12:03:06 GMT 49.398193 40.453423 39,000 183 443 0
2020-04-01 12:02:59 GMT 49.413525 40.454552 39,000 183 443 0
2020-04-01 12:02:55 GMT 49.419018 40.454987 39,000 183 443 0
2020-04-01 12:02:51 GMT 49.428040 40.455708 39,000 183 443 -64
2020-04-01 12:02:46 GMT 49.440105 40.456707 39,000 183 443 0
2020-04-01 12:02:41 GMT 49.448273 40.457298 39,000 183 443 0
2020-04-01 12:02:38 GMT 49.455002 40.457874 39,000 183 443 0
2020-04-01 12:02:35 GMT 49.460773 40.458340 39,000 183 443 0
2020-04-01 12:02:32 GMT 49.466686 40.458786 39,000 175 449 64
2020-04-01 12:02:28 GMT 49.476696 40.459679 39,000 184 443 0
2020-04-01 12:02:25 GMT 49.481815 40.460121 39,000 183 444 0
2020-04-01 12:02:21 GMT 49.488785 40.460548 39,000 182 445 0
2020-04-01 12:02:15 GMT 49.503418 40.460644 39,000 178 447 0
2020-04-01 12:02:08 GMT 49.516022 40.459827 39,000 175 449 0
2020-04-01 12:02:04 GMT 49.525131 40.458599 39,000 173 452 0
2020-04-01 12:02:00 GMT 49.532181 40.457371 39,000 171 452 0
2020-04-01 12:01:57 GMT 49.540661 40.455444 39,000 169 454 0
2020-04-01 12:01:54 GMT 49.546051 40.454044 39,000 168 455 0
2020-04-01 12:01:49 GMT 49.554932 40.451298 39,000 166 456 0
2020-04-01 12:01:46 GMT 49.562725 40.448467 39,000 165 457 -64
2020-04-01 12:01:43 GMT 49.573151 40.444073 39,000 162 460 64
2020-04-01 12:01:34 GMT 49.588531 40.436409 39,000 161 462 0
2020-04-01 12:01:30 GMT 49.593613 40.433807 39,000 161 462 0
2020-04-01 12:01:26 GMT 49.604507 40.428169 39,000 161 461 0
2020-04-01 12:01:23 GMT 49.608582 40.426075 39,000 161 461 0
2020-04-01 12:01:18 GMT 49.617657 40.421448 39,000 161 461 0
2020-04-01 12:01:15 GMT 49.625523 40.417366 39,000 161 461 0
2020-04-01 12:01:11 GMT 49.633209 40.413425 39,000 161 460 0
2020-04-01 12:01:03 GMT 49.650520 40.404449 39,000 161 460 0
2020-04-01 12:00:58 GMT 49.659348 40.399910 39,000 161 459 -64
2020-04-01 12:00:55 GMT 49.665791 40.396507 39,000 161 459 -64
2020-04-01 12:00:52 GMT 49.670975 40.393837 39,000 161 458 -64
2020-04-01 12:00:49 GMT 49.677010 40.390717 39,000 161 457 0
2020-04-01 12:00:44 GMT 49.687252 40.385372 39,000 161 457 0
2020-04-01 12:00:40 GMT 49.695236 40.381260 39,000 161 456 0
2020-04-01 12:00:35 GMT 49.707230 40.375046 39,000 161 456 -64
2020-04-01 12:00:32 GMT 49.712631 40.372227 39,000 161 456 0
2020-04-01 12:00:24 GMT 49.727417 40.364567 39,000 161 455 0
2020-04-01 12:00:19 GMT 49.736362 40.359985 39,000 161 455 0
2020-04-01 12:00:14 GMT 49.748932 40.353504 39,000 161 454 0
2020-04-01 12:00:09 GMT 49.756302 40.349674 39,000 161 454 0
2020-04-01 12:00:04 GMT 49.768616 40.343315 39,000 161 453 0
2020-04-01 12:00:01 GMT 49.774567 40.340279 39,000 161 453 0
2020-04-01 11:59:57 GMT 49.780540 40.337193 39,000 161 453 0
2020-04-01 11:59:53 GMT 49.789062 40.332741 39,000 161 452 0
2020-04-01 11:59:48 GMT 49.797180 40.328571 39,000 161 452 64
2020-04-01 11:59:43 GMT 49.809826 40.321976 39,000 161 451 0
2020-04-01 11:59:39 GMT 49.816574 40.318489 39,000 161 451 -128
2020-04-01 11:59:32 GMT 49.830551 40.311222 39,000 161 450 -64
2020-04-01 11:59:28 GMT 49.837463 40.307610 39,000 161 450 0
2020-04-01 11:59:21 GMT 49.851070 40.300449 39,000 161 450 0
2020-04-01 11:59:18 GMT 49.857960 40.296810 39,000 161 450 -64
2020-04-01 11:59:12 GMT 49.870743 40.290047 39,000 161 450 0
2020-04-01 11:59:08 GMT 49.877060 40.286720 39,000 161 450 0
2020-04-01 11:59:01 GMT 49.891056 40.279369 39,000 161 450 64
2020-04-01 11:58:57 GMT 49.898132 40.275658 39,000 161 450 64
2020-04-01 11:58:51 GMT 49.911121 40.268826 39,000 161 450 0
2020-04-01 11:58:47 GMT 49.917641 40.265411 39,000 161 450 -64
2020-04-01 11:58:41 GMT 49.931625 40.258026 39,000 161 450 0
2020-04-01 11:58:36 GMT 49.939728 40.253834 39,000 161 450 0
2020-04-01 11:58:30 GMT 49.952957 40.246895 39,000 161 451 0
2020-04-01 11:58:27 GMT 49.957859 40.244331 39,000 161 451 0
2020-04-01 11:58:19 GMT 49.973454 40.236092 39,000 161 451 0
2020-04-01 11:58:16 GMT 49.979187 40.233089 39,000 161 451 0
2020-04-01 11:58:10 GMT 49.993008 40.225845 39,000 161 451 64
2020-04-01 11:58:06 GMT 49.999943 40.222210 39,000 161 451 0
2020-04-01 11:57:59 GMT 50.014187 40.214710 39,000 161 452 0
2020-04-01 11:57:56 GMT 50.018147 40.212631 39,000 161 452 0
2020-04-01 11:57:48 GMT 50.034763 40.203873 39,000 161 453 0
2020-04-01 11:57:45 GMT 50.040710 40.200783 39,000 161 452 0
2020-04-01 11:57:39 GMT 50.054581 40.193481 39,000 161 452 0
2020-04-01 11:57:35 GMT 50.060349 40.190445 39,000 161 452 0
2020-04-01 11:57:30 GMT 50.080570 40.179825 39,000 161 454 0
2020-04-01 11:57:26 GMT 50.080570 40.179825 39,000 161 454 0
2020-04-01 11:57:19 GMT 50.092255 40.173607 39,000 161 454 0
2020-04-01 11:57:15 GMT 50.100815 40.169125 39,000 161 454 0
2020-04-01 11:57:08 GMT 50.116508 40.160820 39,000 161 455 0
2020-04-01 11:57:05 GMT 50.123291 40.157269 39,000 161 455 0
2020-04-01 11:57:00 GMT 50.132217 40.152500 39,000 161 455 0
2020-04-01 11:56:57 GMT 50.136204 40.150429 39,000 161 456 0
2020-04-01 11:56:53 GMT 50.143604 40.146492 39,000 161 456 0
2020-04-01 11:56:49 GMT 50.152771 40.141659 39,000 161 456 0
2020-04-01 11:56:46 GMT 50.157715 40.139057 39,000 161 456 0
2020-04-01 11:56:43 GMT 50.164505 40.135433 39,000 161 456 0
2020-04-01 11:56:37 GMT 50.178680 40.127998 39,000 161 456 0
2020-04-01 11:56:34 GMT 50.181450 40.126450 39,000 161 457 0
2020-04-01 11:56:28 GMT 50.193832 40.119919 39,000 161 457 -64
2020-04-01 11:56:24 GMT 50.208637 40.112049 39,000 161 457 0
2020-04-01 11:56:16 GMT 50.219009 40.106529 39,000 161 457 -64
2020-04-01 11:56:12 GMT 50.228027 40.101761 39,000 161 457 -64
2020-04-01 11:56:09 GMT 50.234207 40.098507 39,000 161 457 0
2020-04-01 11:56:06 GMT 50.239407 40.095718 39,000 161 457 0
2020-04-01 11:56:02 GMT 50.246437 40.091930 39,000 161 458 0
2020-04-01 11:55:55 GMT 50.261055 40.084137 39,000 161 458 0
2020-04-01 11:55:52 GMT 50.266846 40.081089 39,000 161 458 0
2020-04-01 11:55:48 GMT 50.275066 40.076714 39,000 161 458 0
2020-04-01 11:55:45 GMT 50.281082 40.073498 39,000 161 458 64
2020-04-01 11:55:42 GMT 50.287312 40.070183 39,000 161 458 64
2020-04-01 11:55:35 GMT 50.301910 40.062366 39,000 161 459 -64
2020-04-01 11:55:31 GMT 50.308769 40.058750 39,000 161 459 0
2020-04-01 11:55:27 GMT 50.316376 40.054707 39,000 161 459 0
2020-04-01 11:55:24 GMT 50.322411 40.051552 39,000 161 459 0
2020-04-01 11:55:21 GMT 50.329239 40.047913 39,000 161 459 0
2020-04-01 11:55:17 GMT 50.336842 40.043903 39,000 161 459 0
2020-04-01 11:55:14 GMT 50.343292 40.040466 39,000 161 459 0
2020-04-01 11:55:11 GMT 50.350937 40.036419 39,000 161 459 0
2020-04-01 11:55:07 GMT 50.356934 40.033241 39,000 161 459 0
2020-04-01 11:55:03 GMT 50.363796 40.029652 39,000 161 459 0
2020-04-01 11:55:00 GMT 50.371628 40.025433 39,000 161 459 0
2020-04-01 11:54:57 GMT 50.377853 40.022110 39,000 161 460 64
2020-04-01 11:54:52 GMT 50.385681 40.017918 39,000 161 460 64
2020-04-01 11:54:49 GMT 50.392319 40.014446 39,000 161 460 64
2020-04-01 11:54:46 GMT 50.397949 40.011414 39,000 161 460 0
2020-04-01 11:54:40 GMT 50.412441 40.003670 39,000 161 460 0
2020-04-01 11:54:37 GMT 50.418262 40.000553 39,000 161 460 0
2020-04-01 11:54:32 GMT 50.427155 39.995800 39,000 161 461 0
2020-04-01 11:54:26 GMT 50.439026 39.989418 39,000 161 461 0
2020-04-01 11:54:22 GMT 50.447067 39.985104 39,000 160 461 0
2020-04-01 11:54:16 GMT 50.459740 39.978210 39,000 161 461 -64
2020-04-01 11:54:11 GMT 50.468399 39.973606 39,000 161 460 -64
2020-04-01 11:54:08 GMT 50.476406 39.969227 39,000 161 461 0
2020-04-01 11:54:05 GMT 50.480827 39.966850 39,000 161 461 0
2020-04-01 11:54:01 GMT 50.488510 39.962769 39,000 161 461 0
2020-04-01 11:53:56 GMT 50.500946 39.956047 39,000 161 460 0
2020-04-01 11:53:51 GMT 50.508804 39.951855 39,000 161 460 0
2020-04-01 11:53:48 GMT 50.516052 39.947952 39,000 161 460 0
2020-04-01 11:53:44 GMT 50.522491 39.944508 39,000 161 460 0
2020-04-01 11:53:41 GMT 50.529739 39.940578 39,000 161 460 0
2020-04-01 11:53:34 GMT 50.542835 39.933594 39,000 161 460 0
2020-04-01 11:53:30 GMT 50.551300 39.929089 39,000 161 460 0
2020-04-01 11:53:25 GMT 50.562561 39.923016 39,000 161 460 0
2020-04-01 11:53:20 GMT 50.571793 39.918079 39,000 161 460 0
2020-04-01 11:53:14 GMT 50.582886 39.912174 39,000 161 460 64
2020-04-01 11:53:09 GMT 50.593533 39.906425 39,000 161 460 0
2020-04-01 11:53:05 GMT 50.604191 39.900711 39,000 161 460 0
2020-04-01 11:52:59 GMT 50.613037 39.895885 39,000 161 460 0
2020-04-01 11:52:54 GMT 50.624313 39.889839 39,000 161 460 -64
2020-04-01 11:52:50 GMT 50.634384 39.884418 39,000 160 460 -64
2020-04-01 11:52:44 GMT 50.645203 39.878513 39,000 160 460 0
2020-04-01 11:52:39 GMT 50.653072 39.874283 39,000 160 460 0
2020-04-01 11:52:33 GMT 50.665920 39.867306 39,000 160 460 0
2020-04-01 11:52:29 GMT 50.673523 39.863148 39,000 160 460 0
2020-04-01 11:52:23 GMT 50.686386 39.856171 39,000 160 460 64
2020-04-01 11:52:19 GMT 50.694214 39.851868 39,000 160 460 64
2020-04-01 11:52:14 GMT 50.706886 39.845047 39,000 160 460 0
2020-04-01 11:52:09 GMT 50.714493 39.840881 39,000 160 460 0
2020-04-01 11:52:03 GMT 50.726765 39.834213 39,000 160 460 -64
2020-04-01 11:51:59 GMT 50.735004 39.829712 39,000 160 460 0
2020-04-01 11:51:52 GMT 50.747852 39.822693 39,000 160 460 64
2020-04-01 11:51:48 GMT 50.755718 39.818420 39,000 160 460 0
2020-04-01 11:51:43 GMT 50.767776 39.811935 39,000 161 461 0
2020-04-01 11:51:38 GMT 50.776386 39.807205 39,000 160 460 0
2020-04-01 11:51:33 GMT 50.789246 39.800201 39,000 161 461 0
2020-04-01 11:51:28 GMT 50.796497 39.796295 39,000 161 461 0
2020-04-01 11:51:22 GMT 50.809387 39.789288 39,000 161 461 0
2020-04-01 11:51:18 GMT 50.817028 39.785156 39,000 161 461 0
2020-04-01 11:51:12 GMT 50.830078 39.778004 39,000 161 461 0
2020-04-01 11:51:07 GMT 50.838135 39.773624 39,000 161 461 0
2020-04-01 11:51:01 GMT 50.850826 39.766769 39,000 160 461 -64
2020-04-01 11:50:57 GMT 50.858871 39.762341 39,000 160 461 -64
2020-04-01 11:50:51 GMT 50.870316 39.756035 39,000 160 461 0
2020-04-01 11:50:47 GMT 50.878571 39.751511 39,000 160 462 0
2020-04-01 11:50:41 GMT 50.891884 39.744263 39,000 160 465 64
2020-04-01 11:50:36 GMT 50.901054 39.739227 39,000 160 467 0
2020-04-01 11:50:31 GMT 50.912888 39.732723 39,000 160 469 0
2020-04-01 11:50:27 GMT 50.920670 39.728493 39,000 160 469 -64
2020-04-01 11:50:20 GMT 50.933411 39.721527 39,000 160 469 0
2020-04-01 11:50:17 GMT 50.941181 39.717178 39,000 160 471 0
2020-04-01 11:50:10 GMT 50.954727 39.709785 39,000 160 471 0
2020-04-01 11:50:06 GMT 50.962132 39.705658 39,000 160 471 0
2020-04-01 11:50:00 GMT 50.975677 39.698181 39,000 160 471 0
2020-04-01 11:49:56 GMT 50.983685 39.693756 39,000 160 471 -64
2020-04-01 11:49:49 GMT 50.996861 39.686508 39,000 160 471 0
2020-04-01 11:49:45 GMT 51.005283 39.681854 39,000 160 471 0
2020-04-01 11:49:40 GMT 51.017624 39.675064 39,000 160 471 0
2020-04-01 11:49:36 GMT 51.025406 39.670738 39,000 160 472 0
2020-04-01 11:49:30 GMT 51.038177 39.663689 39,000 160 472 64
2020-04-01 11:49:24 GMT 51.048485 39.658051 39,000 160 472 0
2020-04-01 11:49:20 GMT 51.060608 39.651367 39,000 160 472 0
2020-04-01 11:49:14 GMT 51.068874 39.646835 39,000 160 472 0
2020-04-01 11:49:09 GMT 51.081631 39.639740 39,000 160 472 -64
2020-04-01 11:49:05 GMT 51.089035 39.635704 39,000 160 472 -64
2020-04-01 11:48:59 GMT 51.102219 39.628429 39,000 160 471 0
2020-04-01 11:48:54 GMT 51.110027 39.624100 39,000 160 471 64
2020-04-01 11:48:48 GMT 51.123203 39.616852 39,000 160 471 64
2020-04-01 11:48:44 GMT 51.131058 39.612617 39,000 160 473 0
2020-04-01 11:48:38 GMT 51.144058 39.605408 39,000 160 472 0
2020-04-01 11:48:34 GMT 51.151474 39.601406 39,000 160 472 0
2020-04-01 11:48:28 GMT 51.164448 39.594269 39,000 160 471 0
2020-04-01 11:48:24 GMT 51.173080 39.589531 39,000 160 471 0
2020-04-01 11:48:18 GMT 51.185852 39.582554 39,000 161 471 0
2020-04-01 11:48:13 GMT 51.194321 39.577877 39,000 161 471 0
2020-04-01 11:48:08 GMT 51.206268 39.571342 39,000 160 471 0
2020-04-01 11:48:03 GMT 51.215328 39.566422 39,000 160 471 0
2020-04-01 11:47:57 GMT 51.228699 39.559021 39,000 160 471 0
2020-04-01 11:47:53 GMT 51.235886 39.555012 39,000 160 471 0
2020-04-01 11:47:43 GMT 51.256668 39.543430 39,000 160 471 0
2020-04-01 11:47:35 GMT 51.273285 39.534149 39,000 160 471 64
2020-04-01 11:47:32 GMT 51.278641 39.531185 39,000 160 471 64
2020-04-01 11:47:26 GMT 51.292000 39.523697 39,000 160 471 0
2020-04-01 11:47:22 GMT 51.299587 39.519501 39,000 160 471 -64
2020-04-01 11:47:15 GMT 51.314392 39.511185 39,000 160 471 0
2020-04-01 11:47:12 GMT 51.319931 39.508133 39,000 160 471 0
2020-04-01 11:47:06 GMT 51.332840 39.500896 39,000 160 471 0
2020-04-01 11:47:02 GMT 51.341858 39.495773 39,000 160 470 0
2020-04-01 11:46:56 GMT 51.354401 39.488724 39,000 160 470 0
2020-04-01 11:46:52 GMT 51.362778 39.483971 39,000 160 470 -64
2020-04-01 11:46:46 GMT 51.374908 39.477219 39,000 160 470 0
2020-04-01 11:46:42 GMT 51.382683 39.472809 39,000 160 470 0
2020-04-01 11:46:36 GMT 51.395348 39.465637 39,000 160 470 0
2020-04-01 11:46:31 GMT 51.405212 39.459995 39,000 160 470 0
2020-04-01 11:46:26 GMT 51.416016 39.453812 39,000 160 470 0
2020-04-01 11:46:21 GMT 51.424397 39.449005 39,000 160 470 0
2020-04-01 11:46:15 GMT 51.438313 39.441071 39,000 160 470 0
2020-04-01 11:46:11 GMT 51.445679 39.436909 39,000 160 469 0
2020-04-01 11:46:06 GMT 51.457355 39.430313 39,000 160 470 0
2020-04-01 11:45:59 GMT 51.469437 39.423473 39,000 160 469 0
2020-04-01 11:45:54 GMT 51.480652 39.417164 39,000 160 469 0
2020-04-01 11:45:50 GMT 51.487839 39.413155 39,000 160 469 0
2020-04-01 11:45:44 GMT 51.501534 39.405441 39,000 160 469 0
2020-04-01 11:45:40 GMT 51.508896 39.401279 39,000 160 469 0
2020-04-01 11:45:35 GMT 51.520153 39.394989 39,000 160 471 0
2020-04-01 11:45:30 GMT 51.530411 39.389179 39,000 160 471 0
2020-04-01 11:45:24 GMT 51.542770 39.382275 39,000 160 472 0
2020-04-01 11:45:18 GMT 51.557144 39.374184 39,000 160 471 0
2020-04-01 11:45:14 GMT 51.562683 39.371067 39,000 160 471 0
2020-04-01 11:45:10 GMT 51.571106 39.366314 39,000 160 471 0
2020-04-01 11:45:04 GMT 51.584068 39.358978 39,000 160 471 64
2020-04-01 11:45:00 GMT 51.592075 39.354477 39,000 160 471 0
2020-04-01 11:44:54 GMT 51.604366 39.347534 39,000 160 471 0
2020-04-01 11:44:49 GMT 51.612991 39.342636 39,000 160 472 -64
2020-04-01 11:44:44 GMT 51.625122 39.335808 39,000 160 471 -64
2020-04-01 11:44:39 GMT 51.634186 39.330685 39,000 160 471 0
2020-04-01 11:44:33 GMT 51.646912 39.323483 39,000 160 472 -64
2020-04-01 11:44:29 GMT 51.654922 39.318954 39,000 160 472 -64
2020-04-01 11:44:24 GMT 51.668518 39.311310 39,025 160 472 -64
2020-04-01 11:44:19 GMT 51.675934 39.307079 39,000 160 473 0
2020-04-01 11:44:13 GMT 51.688705 39.299877 39,000 160 474 0
2020-04-01 11:44:09 GMT 51.697189 39.295120 39,000 160 476 0
2020-04-01 11:44:03 GMT 51.710312 39.287704 39,000 160 478 0
2020-04-01 11:43:58 GMT 51.719238 39.282581 39,000 160 478 64
2020-04-01 11:43:53 GMT 51.730476 39.276199 39,000 160 478 64
2020-04-01 11:43:48 GMT 51.740707 39.270332 39,000 160 478 0
2020-04-01 11:43:43 GMT 51.752151 39.263802 39,000 160 477 0
2020-04-01 11:43:37 GMT 51.762726 39.257641 39,000 160 477 0
2020-04-01 11:43:32 GMT 51.773769 39.251251 39,000 160 478 0
2020-04-01 11:43:25 GMT 51.789925 39.241943 39,000 160 477 0
2020-04-01 11:43:22 GMT 51.794083 39.239529 39,000 160 477 0
2020-04-01 11:43:16 GMT 51.807148 39.231873 39,000 160 477 -64
2020-04-01 11:43:12 GMT 51.816650 39.226387 39,000 161 475 0
2020-04-01 11:43:07 GMT 51.825211 39.221710 39,000 161 475 0
2020-04-01 11:43:01 GMT 51.836884 39.215626 39,000 162 475 0
2020-04-01 11:42:57 GMT 51.845901 39.210945 39,000 162 475 0
2020-04-01 11:42:52 GMT 51.857796 39.204865 39,000 162 475 0
2020-04-01 11:42:47 GMT 51.866959 39.200111 39,000 162 475 0
2020-04-01 11:42:41 GMT 51.878677 39.194172 39,000 162 474 0
2020-04-01 11:42:36 GMT 51.889545 39.188690 39,000 162 473 0
2020-04-01 11:42:31 GMT 51.900192 39.183273 39,000 162 473 0
2020-04-01 11:42:26 GMT 51.910213 39.178188 39,000 162 473 0
2020-04-01 11:42:21 GMT 51.921852 39.172302 39,000 162 472 -64
2020-04-01 11:42:16 GMT 51.931675 39.167278 39,000 162 472 0
2020-04-01 11:42:11 GMT 51.942707 39.161709 39,000 162 472 0
2020-04-01 11:42:06 GMT 51.952469 39.156723 39,000 162 471 64
2020-04-01 11:42:00 GMT 51.964493 39.150566 39,000 162 471 0
2020-04-01 11:41:55 GMT 51.974258 39.145584 39,000 162 471 0
2020-04-01 11:41:51 GMT 51.985909 39.139656 39,000 162 471 0
2020-04-01 11:41:46 GMT 51.994846 39.135105 39,000 162 471 64
2020-04-01 11:41:40 GMT 52.007275 39.128826 39,000 162 471 0
2020-04-01 11:41:35 GMT 52.016830 39.123993 39,000 162 471 0
2020-04-01 11:41:30 GMT 52.028046 39.118347 39,000 162 470 0
2020-04-01 11:41:25 GMT 52.037582 39.113525 39,000 162 470 0
2020-04-01 11:41:19 GMT 52.049377 39.107513 39,000 162 470 0
2020-04-01 11:41:15 GMT 52.059311 39.102402 39,000 162 469 0
2020-04-01 11:41:09 GMT 52.070911 39.096497 39,000 162 469 64
2020-04-01 11:41:05 GMT 52.079773 39.091873 39,000 162 469 0
2020-04-01 11:41:00 GMT 52.090714 39.086227 39,000 162 469 0
2020-04-01 11:40:54 GMT 52.101452 39.080723 39,000 162 468 -64
2020-04-01 11:40:49 GMT 52.112160 39.075153 39,000 162 469 -64
2020-04-01 11:40:44 GMT 52.121658 39.070206 39,000 162 468 -64
2020-04-01 11:40:39 GMT 52.134224 39.063694 39,000 162 468 64
2020-04-01 11:40:34 GMT 52.142853 39.059219 39,000 162 468 0
2020-04-01 11:40:29 GMT 52.153748 39.053497 39,000 162 467 0
2020-04-01 11:40:24 GMT 52.164047 39.048157 39,000 162 467 0
2020-04-01 11:40:18 GMT 52.175514 39.042194 39,000 162 466 0
2020-04-01 11:40:13 GMT 52.185383 39.037090 39,000 162 466 0
2020-04-01 11:40:09 GMT 52.195267 39.031982 39,000 162 466 0
2020-04-01 11:40:03 GMT 52.207775 39.025555 39,000 162 466 0
2020-04-01 11:39:58 GMT 52.217041 39.020767 39,000 162 466 64
2020-04-01 11:39:53 GMT 52.228317 39.015045 39,000 162 466 -64
2020-04-01 11:39:48 GMT 52.238388 39.009857 39,000 162 465 0
2020-04-01 11:39:42 GMT 52.251068 39.003372 39,000 162 464 0
2020-04-01 11:39:38 GMT 52.258667 38.999405 39,000 162 464 0
2020-04-01 11:39:33 GMT 52.268875 38.994141 39,000 162 464 0
2020-04-01 11:39:30 GMT 52.273361 38.991776 39,000 162 464 0
2020-04-01 11:39:27 GMT 52.281143 38.987808 39,000 162 464 0
2020-04-01 11:39:21 GMT 52.292969 38.981689 39,000 162 463 0
2020-04-01 11:39:18 GMT 52.302155 38.976898 39,000 162 463 128
2020-04-01 11:39:12 GMT 52.311768 38.971939 39,000 162 463 -64
2020-04-01 11:39:07 GMT 52.322342 38.966446 39,000 162 463 0
2020-04-01 11:39:02 GMT 52.331326 38.961838 39,000 162 462 64
2020-04-01 11:38:57 GMT 52.342712 38.955917 39,000 162 462 0
2020-04-01 11:38:52 GMT 52.353287 38.950348 39,000 162 462 0
2020-04-01 11:38:46 GMT 52.363678 38.944855 39,000 162 462 0
2020-04-01 11:38:39 GMT 52.377502 38.937836 39,000 167 460 0
2020-04-01 11:38:36 GMT 52.383865 38.934860 39,000 165 461 0
2020-04-01 11:38:31 GMT 52.395401 38.930054 39,000 167 460 0
2020-04-01 11:38:26 GMT 52.406158 38.926086 39,000 168 460 0
2020-04-01 11:38:21 GMT 52.415306 38.923149 39,000 169 459 0
2020-04-01 11:38:16 GMT 52.426384 38.919773 39,000 169 459 0
2020-04-01 11:38:10 GMT 52.440536 38.915379 39,000 169 459 0
2020-04-01 11:38:05 GMT 52.447632 38.913116 39,000 169 459 -64
2020-04-01 11:37:59 GMT 52.461777 38.908768 39,000 169 459 0
2020-04-01 11:37:56 GMT 52.469055 38.906479 39,000 169 459 0
2020-04-01 11:37:49 GMT 52.480946 38.902744 39,000 169 459 64
2020-04-01 11:37:45 GMT 52.490303 38.899761 39,000 169 459 -64
2020-04-01 11:37:39 GMT 52.501335 38.896309 39,000 169 459 64
2020-04-01 11:37:36 GMT 52.510712 38.893433 39,000 169 459 0
2020-04-01 11:37:29 GMT 52.525913 38.888618 39,000 169 460 0
2020-04-01 11:37:25 GMT 52.532150 38.886658 39,000 169 460 64
2020-04-01 11:37:20 GMT 52.542999 38.883282 39,000 169 460 0
2020-04-01 11:37:15 GMT 52.554886 38.879547 39,000 169 460 0
2020-04-01 11:37:08 GMT 52.568462 38.875278 39,000 169 460 -64
2020-04-01 11:37:05 GMT 52.575726 38.873001 39,000 169 460 0
2020-04-01 11:36:59 GMT 52.585964 38.869865 39,000 169 460 64
2020-04-01 11:36:53 GMT 52.597607 38.866177 39,000 169 460 -64
2020-04-01 11:36:49 GMT 52.607208 38.863144 39,000 169 460 0
2020-04-01 11:36:44 GMT 52.618645 38.859505 39,000 169 459 0
2020-04-01 11:36:39 GMT 52.629261 38.856133 39,000 169 459 -128
2020-04-01 11:36:34 GMT 52.648865 38.849945 39,000 169 459 64
2020-04-01 11:36:29 GMT 52.648865 38.849945 39,000 169 459 -64
2020-04-01 11:36:22 GMT 52.666122 38.844528 39,000 169 459 -64
2020-04-01 11:36:18 GMT 52.673401 38.842239 39,000 169 459 64
2020-04-01 11:36:12 GMT 52.684021 38.838882 39,000 169 459 64
2020-04-01 11:36:08 GMT 52.691315 38.836590 39,000 169 459 64
2020-04-01 11:36:01 GMT 52.707367 38.831558 39,000 169 459 0
2020-04-01 11:35:58 GMT 52.713612 38.829529 39,000 169 459 -64
2020-04-01 11:35:52 GMT 52.727966 38.824997 39,000 169 459 0
2020-04-01 11:35:48 GMT 52.733963 38.823090 39,000 169 459 0
2020-04-01 11:35:43 GMT 52.744385 38.819798 39,000 169 458 0
2020-04-01 11:35:38 GMT 52.755604 38.816265 39,000 169 458 64
2020-04-01 11:35:31 GMT 52.770355 38.811569 39,000 169 458 -64
2020-04-01 11:35:27 GMT 52.776970 38.809441 39,000 169 458 -128
2020-04-01 11:35:23 GMT 52.786560 38.806381 39,000 169 458 64
2020-04-01 11:35:20 GMT 52.792557 38.804474 39,000 169 458 64
2020-04-01 11:35:17 GMT 52.797775 38.802872 39,000 169 458 0
2020-04-01 11:35:13 GMT 52.807526 38.799744 39,000 169 458 0
2020-04-01 11:35:07 GMT 52.818913 38.796101 39,000 169 458 0
2020-04-01 11:35:03 GMT 52.828903 38.792953 39,000 169 458 128
2020-04-01 11:34:59 GMT 52.836960 38.790436 39,000 169 458 64
2020-04-01 11:34:56 GMT 52.840942 38.789139 39,000 169 458 0
2020-04-01 11:34:52 GMT 52.851105 38.785934 39,000 169 458 -64
2020-04-01 11:34:46 GMT 52.861862 38.782501 39,000 169 457 0
2020-04-01 11:34:41 GMT 52.872265 38.779228 39,000 169 457 64
2020-04-01 11:34:36 GMT 52.882599 38.775932 39,000 169 457 -64
2020-04-01 11:34:32 GMT 52.892578 38.772736 39,000 169 457 64
2020-04-01 11:34:26 GMT 52.904572 38.768921 39,000 169 457 0
2020-04-01 11:34:21 GMT 52.915558 38.765411 39,000 169 457 -64
2020-04-01 11:34:16 GMT 52.924911 38.762432 39,000 169 457 64
2020-04-01 11:34:12 GMT 52.936523 38.758698 39,000 169 457 0
2020-04-01 11:34:05 GMT 52.948750 38.754742 39,000 169 457 0
2020-04-01 11:34:01 GMT 52.956009 38.752468 39,000 169 457 0
2020-04-01 11:33:55 GMT 52.968441 38.748466 39,000 169 457 0
2020-04-01 11:33:51 GMT 52.978168 38.745327 39,000 169 457 0
2020-04-01 11:33:44 GMT 52.990601 38.741402 39,000 169 457 0
2020-04-01 11:33:41 GMT 52.998699 38.738811 39,000 169 457 0
2020-04-01 11:33:34 GMT 53.014618 38.733749 39,000 169 457 64
2020-04-01 11:33:31 GMT 53.019600 38.732143 39,000 169 457 64
2020-04-01 11:33:25 GMT 53.030586 38.728611 39,000 168 457 -64
2020-04-01 11:33:21 GMT 53.040756 38.725281 39,000 168 457 -64
2020-04-01 11:33:15 GMT 53.051926 38.721695 39,000 169 457 64
2020-04-01 11:33:10 GMT 53.062500 38.718262 39,000 169 457 0
2020-04-01 11:33:02 GMT 53.080124 38.712616 39,000 169 457 -64
2020-04-01 11:32:59 GMT 53.096695 38.707268 39,000 169 459 0
2020-04-01 11:32:53 GMT 53.096695 38.707268 39,000 169 457 0
2020-04-01 11:32:49 GMT 53.104977 38.704594 39,000 169 457 0
2020-04-01 11:32:44 GMT 53.116150 38.701038 39,000 169 457 64
2020-04-01 11:32:39 GMT 53.125717 38.698006 39,000 169 457 64
2020-04-01 11:32:34 GMT 53.136494 38.694492 39,000 169 457 0
2020-04-01 11:32:30 GMT 53.147461 38.690945 39,000 169 457 0
2020-04-01 11:32:21 GMT 53.162189 38.686172 39,000 169 458 0
2020-04-01 11:32:18 GMT 53.168839 38.684036 39,000 169 458 0
2020-04-01 11:32:13 GMT 53.179642 38.680588 39,000 169 458 -64
2020-04-01 11:32:08 GMT 53.191681 38.676739 39,000 169 458 0
2020-04-01 11:32:03 GMT 53.201019 38.673759 39,000 169 458 0
2020-04-01 11:31:56 GMT 53.216812 38.668659 39,000 169 459 0
2020-04-01 11:31:53 GMT 53.221985 38.667011 39,000 169 459 0
2020-04-01 11:31:49 GMT 53.231133 38.664120 39,000 169 459 0
2020-04-01 11:31:46 GMT 53.236130 38.662537 39,000 169 459 0
2020-04-01 11:31:43 GMT 53.242771 38.660404 39,000 169 459 -64
2020-04-01 11:31:39 GMT 53.252129 38.657413 39,000 169 459 64
2020-04-01 11:31:35 GMT 53.260071 38.654926 39,000 169 459 64
2020-04-01 11:31:32 GMT 53.264233 38.653618 39,000 169 459 64
2020-04-01 11:31:28 GMT 53.274010 38.650467 39,000 169 459 64
2020-04-01 11:31:25 GMT 53.278805 38.648933 39,000 169 465 -128
2020-04-01 11:31:21 GMT 53.286949 38.646347 39,000 169 459 0
2020-04-01 11:31:16 GMT 53.300491 38.641975 39,000 168 460 128
2020-04-01 11:31:11 GMT 53.311295 38.638447 39,000 168 460 0
2020-04-01 11:31:07 GMT 53.317162 38.636574 39,000 168 460 0
2020-04-01 11:31:04 GMT 53.326519 38.633503 39,000 168 460 0
2020-04-01 11:31:01 GMT 53.332569 38.631485 39,000 168 460 0
2020-04-01 11:30:57 GMT 53.338203 38.629627 39,000 168 460 0
2020-04-01 11:30:51 GMT 53.351147 38.625423 39,000 168 461 -64
2020-04-01 11:30:48 GMT 53.359497 38.622673 39,000 168 461 -64
2020-04-01 11:30:41 GMT 53.372280 38.618477 39,000 168 462 64
2020-04-01 11:30:37 GMT 53.379593 38.616081 39,000 168 462 0
2020-04-01 11:30:31 GMT 53.392181 38.612000 39,000 168 463 -64
2020-04-01 11:30:25 GMT 53.404587 38.607895 39,000 168 464 -128
2020-04-01 11:30:21 GMT 53.414017 38.604778 39,000 168 463 -64
2020-04-01 11:30:16 GMT 53.423721 38.601597 39,000 168 463 64
2020-04-01 11:30:11 GMT 53.435265 38.597878 39,000 168 464 0
2020-04-01 11:30:04 GMT 53.448719 38.593437 39,000 168 464 64
2020-04-01 11:30:01 GMT 53.457321 38.590656 39,000 168 464 0
2020-04-01 11:29:55 GMT 53.469528 38.586651 39,000 168 464 64
2020-04-01 11:29:50 GMT 53.479210 38.583500 39,000 169 465 -128
2020-04-01 11:29:44 GMT 53.491825 38.579380 39,000 168 464 0
2020-04-01 11:29:39 GMT 53.503418 38.575584 39,000 168 464 -64
2020-04-01 11:29:35 GMT 53.514999 38.571743 39,000 168 464 128
2020-04-01 11:29:29 GMT 53.525299 38.568447 39,000 169 465 0
2020-04-01 11:29:24 GMT 53.533951 38.565620 39,000 169 464 64
2020-04-01 11:29:19 GMT 53.544662 38.562172 39,000 169 464 64
2020-04-01 11:29:15 GMT 53.553085 38.559422 39,000 169 465 0
2020-04-01 11:29:09 GMT 53.564262 38.555794 39,000 169 465 0
2020-04-01 11:29:05 GMT 53.573547 38.552753 39,000 169 465 0
2020-04-01 11:28:58 GMT 53.596291 38.545452 39,000 168 464 64
2020-04-01 11:28:49 GMT 53.607834 38.541611 39,000 168 464 -64
2020-04-01 11:28:45 GMT 53.616486 38.538784 39,000 168 464 0
2020-04-01 11:28:39 GMT 53.633949 38.533012 39,000 168 462 0
2020-04-01 11:28:36 GMT 53.633949 38.533012 39,000 168 464 64
2020-04-01 11:28:33 GMT 53.642563 38.530102 39,000 168 463 64
2020-04-01 11:28:28 GMT 53.651184 38.527248 39,000 168 463 0
2020-04-01 11:28:25 GMT 53.659790 38.524345 39,000 168 462 -64
2020-04-01 11:28:22 GMT 53.663544 38.523090 39,000 168 462 0
2020-04-01 11:28:16 GMT 53.678825 38.517986 39,000 168 460 -64
2020-04-01 11:28:11 GMT 53.686508 38.515400 39,000 168 459 0
2020-04-01 11:28:07 GMT 53.697353 38.511845 39,000 168 459 64
2020-04-01 11:28:03 GMT 53.705658 38.509041 39,000 168 460 0
2020-04-01 11:27:58 GMT 53.714401 38.506138 39,000 168 460 0
2020-04-01 11:27:55 GMT 53.721909 38.503628 39,000 168 460 0
2020-04-01 11:27:51 GMT 53.727753 38.501747 39,000 168 460 0
2020-04-01 11:27:47 GMT 53.736736 38.498760 39,000 168 460 -128
2020-04-01 11:27:41 GMT 53.749821 38.493912 38,975 166 462 704
2020-04-01 11:27:37 GMT 53.757500 38.490681 38,925 165 462 1024
2020-04-01 11:27:34 GMT 53.765762 38.487225 38,875 165 463 960
2020-04-01 11:27:30 GMT 53.773453 38.483929 38,825 165 463 896
2020-04-01 11:27:27 GMT 53.778217 38.481956 38,775 165 463 896
2020-04-01 11:27:23 GMT 53.786503 38.478401 38,725 165 463 832
2020-04-01 11:27:20 GMT 53.793762 38.475334 38,675 165 463 896
2020-04-01 11:27:17 GMT 53.798950 38.473179 38,650 165 463 832
2020-04-01 11:27:13 GMT 53.807869 38.469357 38,575 165 462 768
2020-04-01 11:27:09 GMT 53.816574 38.465725 38,525 165 462 832
2020-04-01 11:27:06 GMT 53.820740 38.463997 38,500 165 462 832
2020-04-01 11:27:03 GMT 53.830673 38.459759 38,425 166 462 960
2020-04-01 11:26:56 GMT 53.842690 38.454735 38,325 165 461 832
2020-04-01 11:26:51 GMT 53.853443 38.450211 38,275 165 459 512
2020-04-01 11:26:48 GMT 53.859821 38.447544 38,275 165 459 512
2020-04-01 11:26:44 GMT 53.868248 38.443909 38,200 165 459 832
2020-04-01 11:26:39 GMT 53.877731 38.439907 38,125 166 459 896
2020-04-01 11:26:35 GMT 53.888592 38.435345 38,075 165 458 704
2020-04-01 11:26:32 GMT 53.892921 38.433487 38,000 165 458 960
2020-04-01 11:26:29 GMT 53.897854 38.431389 38,000 165 458 960
2020-04-01 11:26:26 GMT 53.904419 38.428604 37,925 165 459 1408
2020-04-01 11:26:21 GMT 53.913895 38.424603 37,800 165 460 1536
2020-04-01 11:26:18 GMT 53.919846 38.422092 37,675 165 461 1280
2020-04-01 11:26:15 GMT 53.926250 38.419350 37,675 165 461 1280
2020-04-01 11:26:11 GMT 53.934910 38.415634 37,575 165 462 1664
2020-04-01 11:26:08 GMT 53.940731 38.413132 37,500 165 462 1920
2020-04-01 11:26:05 GMT 53.946945 38.410480 37,375 165 463 2048
2020-04-01 11:26:00 GMT 53.967312 38.401901 37,100 165 465 1472
2020-04-01 11:25:54 GMT 53.971069 38.400276 37,100 165 465 1472
2020-04-01 11:25:51 GMT 53.977135 38.397701 36,975 165 466 1472
2020-04-01 11:25:48 GMT 53.982559 38.395412 36,925 165 466 1408
2020-04-01 11:25:45 GMT 53.989655 38.392368 36,850 165 468 1344
2020-04-01 11:25:40 GMT 54.000137 38.387959 36,725 165 468 1216
2020-04-01 11:25:37 GMT 54.006226 38.385368 36,675 165 468 1024
2020-04-01 11:25:34 GMT 54.013771 38.382111 36,625 165 467 1088
2020-04-01 11:25:28 GMT 54.025681 38.376972 36,500 165 468 1472
2020-04-01 11:25:24 GMT 54.035110 38.372967 36,375 165 468 1728
2020-04-01 11:25:18 GMT 54.046829 38.367947 36,225 165 469 1792
2020-04-01 11:25:13 GMT 54.058182 38.363129 36,050 165 470 1536
2020-04-01 11:25:10 GMT 54.063862 38.360703 36,000 165 470 1408
2020-04-01 11:25:06 GMT 54.070175 38.357979 35,925 165 470 1472
2020-04-01 11:25:01 GMT 54.087021 38.350761 35,725 165 471 1408
2020-04-01 11:24:57 GMT 54.095673 38.346992 35,625 165 471 1472
2020-04-01 11:24:52 GMT 54.101349 38.344563 35,575 165 471 1472
2020-04-01 11:24:46 GMT 54.112320 38.339783 35,450 165 471 1472
2020-04-01 11:24:41 GMT 54.123680 38.334854 35,300 165 472 1472
2020-04-01 11:24:36 GMT 54.137009 38.329182 35,175 165 471 1280
2020-04-01 11:24:33 GMT 54.140396 38.327690 35,125 165 472 1472
2020-04-01 11:24:26 GMT 54.154964 38.321362 34,950 165 472 1792
2020-04-01 11:24:23 GMT 54.161270 38.318665 34,850 165 473 1600
2020-04-01 11:24:20 GMT 54.169098 38.315212 34,775 165 473 1472
2020-04-01 11:24:16 GMT 54.176514 38.311993 34,675 165 472 1408
2020-04-01 11:24:13 GMT 54.183498 38.308922 34,625 165 472 1280
2020-04-01 11:24:09 GMT 54.193222 38.304695 34,525 165 472 1344
2020-04-01 11:24:03 GMT 54.209942 38.297371 34,300 165 472 1664
2020-04-01 11:23:56 GMT 54.219864 38.293083 34,175 165 473 1344
2020-04-01 11:23:50 GMT 54.231728 38.287918 34,050 165 473 1408
2020-04-01 11:23:43 GMT 54.248859 38.280567 33,825 165 473 1792
2020-04-01 11:23:39 GMT 54.256485 38.277229 33,725 165 473 1792
2020-04-01 11:23:35 GMT 54.263710 38.274185 33,625 165 473 1664
2020-04-01 11:23:32 GMT 54.271996 38.270550 33,500 165 473 1600
2020-04-01 11:23:29 GMT 54.275986 38.268833 33,500 165 473 1600
2020-04-01 11:23:24 GMT 54.285961 38.264549 33,350 165 473 1472
2020-04-01 11:23:19 GMT 54.298435 38.259140 33,200 165 473 1472
2020-04-01 11:23:15 GMT 54.307571 38.255203 33,100 165 473 1344
2020-04-01 11:23:11 GMT 54.317093 38.251083 32,800 165 472 1600
2020-04-01 11:23:08 GMT 54.320251 38.249710 32,975 165 472 1472
2020-04-01 11:23:04 GMT 54.328491 38.246155 32,875 165 472 1536
2020-04-01 11:23:00 GMT 54.338882 38.241631 32,750 164 472 1536
2020-04-01 11:22:55 GMT 54.359161 38.231533 32,600 163 472 1472
2020-04-01 11:22:52 GMT 54.364773 38.228592 32,525 162 471 1408
2020-04-01 11:22:48 GMT 54.364773 38.228592 32,450 162 471 1408
2020-04-01 11:22:43 GMT 54.372921 38.224350 32,350 162 471 1472
2020-04-01 11:22:40 GMT 54.378090 38.221603 32,225 162 471 1536
2020-04-01 11:22:37 GMT 54.388096 38.216358 32,150 162 471 1600
2020-04-01 11:22:34 GMT 54.393078 38.213779 32,100 162 470 1728
2020-04-01 11:22:29 GMT 54.402420 38.208836 32,000 162 470 1728
2020-04-01 11:22:26 GMT 54.409092 38.205372 31,700 162 469 1408
2020-04-01 11:22:22 GMT 54.416538 38.201462 31,800 162 469 1408
2020-04-01 11:22:19 GMT 54.423569 38.197716 31,700 162 468 1664
2020-04-01 11:22:16 GMT 54.431622 38.193470 31,600 162 469 1792
2020-04-01 11:22:12 GMT 54.437027 38.190578 31,425 162 469 1792
2020-04-01 11:22:09 GMT 54.445496 38.186054 31,400 162 469 1728
2020-04-01 11:22:05 GMT 54.453964 38.181610 31,175 162 469 1920
2020-04-01 11:22:02 GMT 54.457672 38.179592 31,225 162 469 1984
2020-04-01 11:21:57 GMT 54.467194 38.174583 31,075 162 469 2048
2020-04-01 11:21:51 GMT 54.481667 38.166836 30,900 162 468 1728
2020-04-01 11:21:48 GMT 54.487839 38.163597 30,775 162 466 1664
2020-04-01 11:21:42 GMT 54.500008 38.157101 30,575 162 467 2240
2020-04-01 11:21:39 GMT 54.507019 38.153336 30,450 162 468 2240
2020-04-01 11:21:36 GMT 54.513603 38.149857 30,325 162 469 2112
2020-04-01 11:21:32 GMT 54.520203 38.146309 30,225 162 469 2176
2020-04-01 11:21:29 GMT 54.526199 38.143158 30,125 162 469 2432
2020-04-01 11:21:24 GMT 54.536133 38.137791 29,925 162 470 2368
2020-04-01 11:21:21 GMT 54.541946 38.134758 29,825 162 470 2368
2020-04-01 11:21:18 GMT 54.549591 38.130638 29,650 162 470 2496
2020-04-01 11:21:14 GMT 54.557693 38.126354 29,500 162 472 2624
2020-04-01 11:21:11 GMT 54.562912 38.123528 29,400 162 473 2496
2020-04-01 11:21:08 GMT 54.569790 38.119896 29,250 162 473 2048
2020-04-01 11:21:04 GMT 54.578751 38.115128 29,100 162 473 2176
2020-04-01 11:21:01 GMT 54.586075 38.111168 28,975 162 474 2368
2020-04-01 11:20:54 GMT 54.607777 38.099586 28,350 162 457 1856
2020-04-01 11:20:51 GMT 54.607777 38.099586 28,450 162 473 1792
2020-04-01 11:20:47 GMT 54.612991 38.096790 28,525 162 473 1856
2020-04-01 11:20:44 GMT 54.621555 38.092262 28,400 162 472 1920
2020-04-01 11:20:41 GMT 54.626358 38.089680 28,125 162 472 1792
2020-04-01 11:20:34 GMT 54.640503 38.082088 28,100 162 472 1728
2020-04-01 11:20:31 GMT 54.647999 38.078114 27,950 162 471 1728
2020-04-01 11:20:26 GMT 54.659218 38.072121 27,850 162 470 1728
2020-04-01 11:20:23 GMT 54.664383 38.069290 27,775 162 469 1728
2020-04-01 11:20:20 GMT 54.670212 38.066174 27,700 162 469 1728
2020-04-01 11:20:16 GMT 54.678490 38.061718 27,625 162 468 1792
2020-04-01 11:20:12 GMT 54.685703 38.057888 27,475 162 467 1792
2020-04-01 11:20:08 GMT 54.696396 38.052116 27,300 162 466 1856
2020-04-01 11:20:01 GMT 54.707886 38.045898 27,125 162 463 1792
2020-04-01 11:19:57 GMT 54.717682 38.040646 27,000 162 463 1664
2020-04-01 11:19:50 GMT 54.730133 38.033939 26,825 162 461 1728
2020-04-01 11:19:47 GMT 54.739471 38.028931 26,700 162 459 1792
2020-04-01 11:19:39 GMT 54.753857 38.021187 26,475 162 457 1856
2020-04-01 11:19:36 GMT 54.760513 38.017605 26,375 162 456 1856
2020-04-01 11:19:32 GMT 54.768951 38.013020 26,200 162 454 1856
2020-04-01 11:19:29 GMT 54.773987 38.010353 26,200 162 454 1856
2020-04-01 11:19:24 GMT 54.786804 38.003407 25,975 162 453 1920
2020-04-01 11:19:19 GMT 54.794033 37.999546 25,850 162 452 2112
2020-04-01 11:19:16 GMT 54.801178 37.995731 25,725 162 452 2176
2020-04-01 11:19:09 GMT 54.814934 37.988308 25,475 162 450 1984
2020-04-01 11:19:06 GMT 54.822464 37.984180 25,350 162 449 1920
2020-04-01 11:19:01 GMT 54.831181 37.979488 25,075 162 446 2176
2020-04-01 11:18:58 GMT 54.835098 37.977394 25,150 162 447 2112
2020-04-01 11:18:55 GMT 54.842789 37.973194 25,000 162 446 2112
2020-04-01 11:18:48 GMT 54.855576 37.966251 24,800 162 444 1920
2020-04-01 11:18:43 GMT 54.865540 37.960835 24,625 162 442 2112
2020-04-01 11:18:37 GMT 54.875839 37.955257 24,500 162 441 2176
2020-04-01 11:18:33 GMT 54.886532 37.949440 24,225 162 439 2112
2020-04-01 11:18:30 GMT 54.889652 37.947693 24,175 162 439 2112
2020-04-01 11:18:27 GMT 54.897766 37.943302 24,025 162 438 2176
2020-04-01 11:18:21 GMT 54.912598 37.935226 23,750 162 435 2240
2020-04-01 11:18:17 GMT 54.916214 37.933205 23,675 162 435 2240
2020-04-01 11:18:14 GMT 54.921585 37.930298 23,575 162 433 2304
2020-04-01 11:18:11 GMT 54.927124 37.927303 23,450 162 432 2368
2020-04-01 11:18:07 GMT 54.935692 37.922558 23,275 162 432 2432
2020-04-01 11:18:01 GMT 54.947144 37.916313 23,050 162 430 2112
2020-04-01 11:17:58 GMT 54.951874 37.913738 22,925 162 428 2112
2020-04-01 11:17:55 GMT 54.958317 37.910240 22,825 162 428 2240
2020-04-01 11:17:50 GMT 54.966972 37.905411 22,575 162 427 2368
2020-04-01 11:17:47 GMT 54.973164 37.902000 22,550 162 426 2432
2020-04-01 11:17:43 GMT 54.978798 37.898918 22,400 162 425 2368
2020-04-01 11:17:40 GMT 54.986481 37.894760 22,225 162 424 2432
2020-04-01 11:17:36 GMT 54.997700 37.888599 21,975 162 422 2496
2020-04-01 11:17:29 GMT 55.006256 37.883930 21,825 162 421 2432
2020-04-01 11:17:26 GMT 55.011246 37.881184 21,700 162 420 2432
2020-04-01 11:17:23 GMT 55.016647 37.878193 21,575 162 419 2560
2020-04-01 11:17:19 GMT 55.026627 37.872700 21,325 162 418 2752
2020-04-01 11:17:13 GMT 55.040588 37.865108 20,975 162 416 2688
2020-04-01 11:17:07 GMT 55.047729 37.861149 20,775 162 414 2432
2020-04-01 11:17:03 GMT 55.058495 37.855225 20,575 162 413 2368
2020-04-01 11:16:58 GMT 55.063248 37.852669 20,450 162 412 2496
2020-04-01 11:16:55 GMT 55.067596 37.850323 20,350 162 410 2688
2020-04-01 11:16:51 GMT 55.075562 37.845963 20,150 162 409 2624
2020-04-01 11:16:48 GMT 55.082050 37.842407 19,900 162 407 2624
2020-04-01 11:16:44 GMT 55.087463 37.839417 19,875 162 407 2624
2020-04-01 11:16:39 GMT 55.097134 37.834084 19,300 162 405 2752
2020-04-01 11:16:35 GMT 55.105179 37.829723 19,425 162 403 2304
2020-04-01 11:16:30 GMT 55.113335 37.825180 19,275 162 401 2048
2020-04-01 11:16:26 GMT 55.120560 37.821163 19,100 162 398 2624
2020-04-01 11:16:22 GMT 55.126556 37.817772 19,025 162 398 2688
2020-04-01 11:16:19 GMT 55.132000 37.814941 18,825 166 393 2176
2020-04-01 11:16:16 GMT 55.140987 37.810947 18,650 168 390 2240
2020-04-01 11:16:13 GMT 55.143494 37.809933 18,375 171 387 3136
2020-04-01 11:16:09 GMT 55.150528 37.807533 18,425 172 386 3136
2020-04-01 11:16:03 GMT 55.162212 37.804787 18,075 175 383 2880
2020-04-01 11:15:58 GMT 55.171200 37.803623 17,825 177 381 2944
2020-04-01 11:15:52 GMT 55.182266 37.803226 17,425 189 368 3328
2020-04-01 11:15:47 GMT 55.189587 37.803703 17,275 185 374 2944
2020-04-01 11:15:43 GMT 55.196987 37.804871 17,075 187 372 2880
2020-04-01 11:15:40 GMT 55.204147 37.806377 16,875 188 369 3328
2020-04-01 11:15:36 GMT 55.212296 37.808235 14,025 158 362 3136
2020-04-01 11:15:33 GMT 55.212296 37.808235 16,500 188 368 3392
2020-04-01 11:15:29 GMT 55.222733 37.810822 15,625 191 366 3200
2020-04-01 11:15:25 GMT 55.227264 37.812195 16,000 195 362 3200
2020-04-01 11:15:22 GMT 55.232346 37.814297 14,325 189 356 3264
2020-04-01 11:15:16 GMT 55.242050 37.818817 15,375 196 359 3200
2020-04-01 11:15:11 GMT 55.248642 37.821968 15,475 196 360 3264
2020-04-01 11:15:04 GMT 55.262100 37.828430 14,725 194 355 3392
2020-04-01 11:15:01 GMT 55.266212 37.830421 14,825 196 355 3328
2020-04-01 11:14:53 GMT 55.278580 37.836269 14,375 192 355 3328
2020-04-01 11:14:49 GMT 55.283249 37.837963 13,175 157 363 3072
2020-04-01 11:14:43 GMT 55.295380 37.839905 13,775 177 358 3328
2020-04-01 11:14:39 GMT 55.300709 37.839828 13,625 175 359 3264
2020-04-01 11:14:32 GMT 55.313183 37.836746 13,200 165 361 3264
2020-04-01 11:14:29 GMT 55.317886 37.834667 13,050 161 361 3200
2020-04-01 11:14:20 GMT 55.330219 37.826096 12,650 151 363 2880
2020-04-01 11:14:17 GMT 55.334782 37.821682 12,500 148 363 2944
2020-04-01 11:14:10 GMT 55.345688 37.809608 12,125 147 359 2688
2020-04-01 11:14:07 GMT 55.350311 37.804440 11,975 147 358 2752
2020-04-01 11:14:00 GMT 55.360382 37.793213 11,675 147 356 2880
2020-04-01 11:13:56 GMT 55.364685 37.788364 11,575 147 355 2816
2020-04-01 11:13:53 GMT 55.370209 37.782230 11,325 147 352 1920
2020-04-01 11:13:49 GMT 55.374573 37.777298 11,250 147 345 1024
2020-04-01 11:13:46 GMT 55.378914 37.772495 11,200 146 341 1024
2020-04-01 11:13:41 GMT 55.388367 37.761673 11,100 144 323 960
2020-04-01 11:13:38 GMT 55.390133 37.759510 11,050 145 325 896
2020-04-01 11:13:35 GMT 55.393890 37.755001 10,875 136 307 832
2020-04-01 11:13:28 GMT 55.401443 37.745632 10,900 140 312 960
2020-04-01 11:13:25 GMT 55.405014 37.740784 10,900 140 312 960
2020-04-01 11:13:20 GMT 55.410461 37.731979 10,825 133 301 1152
2020-04-01 11:13:17 GMT 55.413643 37.726135 10,750 132 297 1792
2020-04-01 11:13:14 GMT 55.415497 37.722527 10,675 131 295 2176
2020-04-01 11:13:10 GMT 55.420067 37.713402 10,450 130 291 3328
2020-04-01 11:13:07 GMT 55.422024 37.709488 10,325 131 291 3584
2020-04-01 11:13:04 GMT 55.425201 37.703060 10,100 134 291 3776
2020-04-01 11:13:00 GMT 55.429096 37.696175 9,825 143 289 3392
2020-04-01 11:12:57 GMT 55.431519 37.692429 9,650 148 286 3328
2020-04-01 11:12:53 GMT 55.436172 37.687099 9,550 154 283 3584
2020-04-01 11:12:49 GMT 55.440903 37.683025 8,975 168 277 3840
2020-04-01 11:12:46 GMT 55.445297 37.680447 9,000 166 278 3840
2020-04-01 11:12:39 GMT 55.453354 37.677956 8,600 181 277 3584
2020-04-01 11:12:34 GMT 55.460266 37.678360 8,025 199 264 3328
2020-04-01 11:12:29 GMT 55.466061 37.680447 8,000 199 264 3328
2020-04-01 11:12:25 GMT 55.470840 37.683437 7,750 205 259 3712
2020-04-01 11:12:16 GMT 55.479355 37.691845 6,975 223 246 3264
2020-04-01 11:12:12 GMT 55.483887 37.698502 6,975 238 236 2048
2020-04-01 11:12:08 GMT 55.486031 37.702503 6,300 231 240 2368
2020-04-01 11:12:04 GMT 55.489197 37.709988 6,700 239 235 1984
2020-04-01 11:12:00 GMT 55.491013 37.715206 6,575 243 233 1984
2020-04-01 11:11:57 GMT 55.492268 37.719841 6,200 255 229 1920
2020-04-01 11:11:54 GMT 55.494411 37.729969 6,300 257 228 1856
2020-04-01 11:11:51 GMT 55.494877 37.732887 6,250 263 226 1728
2020-04-01 11:11:47 GMT 55.495377 37.737206 5,825 285 230 1472
2020-04-01 11:11:44 GMT 55.495880 37.745113 6,125 268 226 1536
2020-04-01 11:11:40 GMT 55.495899 37.750652 5,850 288 231 1536
2020-04-01 11:11:37 GMT 55.495605 37.756180 5,850 288 231 1536
2020-04-01 11:11:33 GMT 55.494781 37.764046 5,850 288 231 1536
2020-04-01 11:11:30 GMT 55.494095 37.768166 5,800 293 232 2112
2020-04-01 11:11:27 GMT 55.492317 37.776058 5,650 297 231 2432
2020-04-01 11:11:23 GMT 55.490341 37.782814 5,500 302 232 3264
2020-04-01 11:11:19 GMT 55.488964 37.786877 5,425 304 232 3520
2020-04-01 11:11:15 GMT 55.486496 37.792801 5,050 314 238 3840
2020-04-01 11:11:12 GMT 55.483097 37.798889 4,575 324 241 3584
2020-04-01 11:11:09 GMT 55.480499 37.802540 4,575 324 241 3584
2020-04-01 11:11:06 GMT 55.478073 37.805618 4,425 327 240 3264
2020-04-01 11:11:01 GMT 55.473740 37.810738 4,175 327 235 3904
2020-04-01 11:10:55 GMT 55.467911 37.817520 3,800 327 234 4096
2020-04-01 11:10:52 GMT 55.465733 37.820004 3,525 327 234 3584
2020-04-01 11:10:48 GMT 55.462009 37.824299 3,375 327 232 3200
2020-04-01 11:10:45 GMT 55.458241 37.828674 3,175 327 230 3008
2020-04-01 11:10:41 GMT 55.455048 37.832420 3,025 327 227 2304
2020-04-01 11:10:38 GMT 55.452484 37.835415 2,900 326 223 2304
2020-04-01 11:10:34 GMT 55.449188 37.839413 2,750 326 217 1920
2020-04-01 11:10:30 GMT 55.446304 37.842907 2,500 326 168 1984
2020-04-01 11:10:27 GMT 55.444366 37.845242 2,625 325 203 1088
2020-04-01 11:10:23 GMT 55.439301 37.851456 2,500 326 187 1152
2020-04-01 11:10:18 GMT 55.434631 37.857029 2,350 326 175 1600
2020-04-01 11:10:14 GMT 55.433945 37.857838 2,325 326 171 1664
2020-04-01 11:10:11 GMT 55.431984 37.860218 2,250 326 168 1984
2020-04-01 11:10:05 GMT 55.428726 37.864128 2,050 327 160 2048

Making use of Plane Finder data

You are free to use the raw flight data, aircraft information and images provided in this report for your own purposes provided the data is correctly attributed to Plane Finder. We ask that you please credit Plane Finder and link to planefinder.net in close proximity to the content.

Optionally one of the following logos (no smaller then 150x24px) can be used and must link to planefinder.net

Embedding the Plane Finder map

You are welcome to embed the Plane Finder playback map on your website to offer visitors a more interactive experience. We suggest using the following HTML code:

<iframe src="//planefinder.net/data/report/S72073-VQ-BVK-7700-squawk-2020-04-01/map" width="800" height="600" seamless="seamless"></iframe>

Where our data comes from

Plane Finder has a global network of data feeds and antenna radars that receive data broadcast directly from aircraft. The primary technologies used are ADS-B and MLAT. We also show feeds from the FAA and a FLARM glider feed.

Click here to find out more about the Plane Finder network.

How we collect our data